Home > Products > Valid Products > TAF

000
FTUS42 KFFC 191341 AAB
TAFATL
TAF AMD
KATL 191341Z 1914/2018 15008KT 5SM -SHRA BR SCT005 BKN025
      TEMPO 1914/1918 VRB15G30KT 1SM TSRA BKN005CB
     FM192000 19010G18KT P6SM VCSH BKN012 OVC025
     FM192300 22010G16KT P6SM BKN030
     FM200200 23008KT P6SM VCSH BKN015
     FM201500 22010G20KT P6SM SHRA OVC030=



000
FTUS42 KFFC 191334 AAA
TAFCSG
TAF AMD
KCSG 191334Z 1914/2012 16006KT 6SM -SHRA BR SCT008 BKN012
      TEMPO 1914/1918 VRB10G20KT 1SM -TSRA BR OVC008CB
     FM192100 21008G16KT P6SM VCSH BKN015
     FM200000 21005KT P6SM BKN030
     FM200700 21005KT 4SM BR OVC004=



000
FTUS42 KFFC 191333 CCA
TAFPDK
TAF COR
KPDK 191333Z 1914/2012 14006KT P6SM SCT005 BKN012
      TEMPO 1914/1918 VRB10G20KT 1SM TSRA BKN005CB
     FM191800 19010KT P6SM -SHRA BKN012 OVC025
      TEMPO 1920/1922 4SM -TSRA BKN010CB
     FM192200 22010KT P6SM VCSH BKN030
     FM200200 23006KT P6SM VCSH BKN015=



000
FTUS42 KFFC 191332 AAA
TAFRYY
TAF AMD
KRYY 191332Z 1914/2012 18007KT 5SM SHRA SCT009 BKN012
      TEMPO 1914/1918 VRB10G20KT 1SM TSRA BKN009CB
     FM191800 19010KT P6SM -SHRA BKN012 OVC025
      TEMPO 1920/1922 4SM -TSRA BKN010CB
     FM192200 22010KT P6SM VCSH BKN030
     FM200200 23006KT P6SM VCSH BKN015=



000
FTUS42 KFFC 191332 CCA
TAFFTY
TAF COR
KFTY 191332Z 1913/2012 15007KT 5SM SHRA BKN012 OVC070
      TEMPO 1914/1918 VRB10G20KT 1SM TSRA BKN009CB
     FM191800 19010KT P6SM -SHRA BKN012 OVC025
      TEMPO 1920/1922 4SM -TSRA BKN010CB
     FM192200 22010KT P6SM VCSH BKN030
     FM200200 23006KT P6SM VCSH BKN015=



000
FTUS42 KFFC 191331 AAA
TAFPDK
TAF AMD
KPDK 191331Z 1914/2012 14006KT P6SM SCT005 BKN012
      TEMPO 1914/1916 VRB10G20KT 1SM TSRA BKN005CB
     FM191600 19010KT P6SM -SHRA BKN012 OVC025
      TEMPO 1920/1922 4SM -TSRA BKN010CB
     FM192200 22010KT P6SM VCSH BKN030
     FM200200 23006KT P6SM VCSH BKN015=



000
FTUS42 KFFC 191329 AAB
TAFFTY
TAF AMD
KFTY 191329Z 1913/2012 15007KT 5SM SHRA BKN012 OVC070
      TEMPO 1914/1916 VRB10G20KT 1SM TSRA BKN009CB
     FM191600 19010KT P6SM -SHRA BKN012 OVC025
      TEMPO 1920/1922 4SM -TSRA BKN010CB
     FM192200 22010KT P6SM VCSH BKN030
     FM200200 23006KT P6SM VCSH BKN015=



000
FTUS42 KFFC 191255 AAA
TAFFTY
TAF AMD
KFTY 191255Z 1913/2012 14003KT 5SM -RA BR OVC012
      TEMPO 1913/1914 VRB10G20KT 1SM TSRA BKN008CB
     FM191400 16005KT 6SM BR VCSH OVC008
     FM191600 19010KT P6SM -SHRA BKN012 OVC025
      TEMPO 1920/1922 4SM -TSRA BKN010CB
     FM192200 22010KT P6SM VCSH BKN030
     FM200200 23006KT P6SM VCSH BKN015=



000
FTUS42 KFFC 191255 AAA
TAFFTY
TAF AMD
KFTY 191255Z 1913/2012 14003KT 5SM -RA BR OVC012
      TEMPO 1913/1914 VRB10G20KT 1SM TSRA BKN008CB
     FM191400 16005KT 6SM BR VCSH OVC008
     FM191600 19010KT P6SM -SHRA BKN012 OVC025
      TEMPO 1920/1922 4SM -TSRA BKN010CB
     FM192200 22010KT P6SM VCSH BKN030
     FM200200 23006KT P6SM VCSH BKN015=



000
FTUS42 KFFC 191232 AAA
TAFATL
TAF AMD
KATL 191232Z 1913/2018 14006KT 5SM -RA BR OVC008
      TEMPO 1913/1914 VRB10G20KT 1SM TSRA BR BKN004CB
     FM191400 16007KT 6SM BR VCSH OVC008
     FM191600 19010G18KT P6SM -SHRA BKN012 OVC025
      TEMPO 1920/1922 4SM -TSRA BKN010CB
     FM192200 22010G16KT P6SM VCSH BKN030
     FM200200 23008KT P6SM VCSH BKN015
     FM201500 22010G20KT P6SM SHRA OVC030=



000
FTUS42 KFFC 191120
TAFMCN
TAF
KMCN 191120Z 1912/2012 16006KT 6SM -SHRA BR OVC025
      TEMPO 1912/1916 4SM -RA BR OVC008
     FM191900 19008G16KT 4SM -TSRA BKN015CB OVC025
     FM192300 21008G16KT P6SM VCSH BKN015
     FM200000 21005KT P6SM BKN030
     FM200400 21005KT 4SM BR OVC004=



000
FTUS42 KFFC 191120
TAFRYY
TAF
KRYY 191120Z 1912/2012 14003KT 5SM -RA BR OVC008
      TEMPO 1912/1914 3SM BR BKN005
     FM191400 16005KT 6SM BR VCSH OVC008
     FM191600 19010KT P6SM -SHRA BKN012 OVC025
      TEMPO 1920/1922 4SM -TSRA BKN010CB
     FM192200 22010KT P6SM VCSH BKN030
     FM200200 23006KT P6SM VCSH BKN015=



000
FTUS42 KFFC 191120
TAFCSG
TAF
KCSG 191120Z 1912/2012 16006KT 6SM -SHRA BR OVC025
      TEMPO 1912/1915 4SM -RA BR OVC008
     FM191500 19008G16KT 4SM -SHRA BKN015 OVC025
      TEMPO 1915/1917 VRB20G30KT 2SM TSRA BKN010CB
     FM192100 21008G16KT P6SM VCSH BKN015
     FM200000 21005KT P6SM BKN030
     FM200700 21005KT 4SM BR OVC004=



000
FTUS42 KFFC 191120
TAFFTY
TAF
KFTY 191120Z 1912/2012 14003KT 5SM -RA BR OVC008
      TEMPO 1912/1914 3SM BR BKN005
     FM191400 16005KT 6SM BR VCSH OVC008
     FM191600 19010KT P6SM -SHRA BKN012 OVC025
      TEMPO 1920/1922 4SM -TSRA BKN010CB
     FM192200 22010KT P6SM VCSH BKN030
     FM200200 23006KT P6SM VCSH BKN015=



000
FTUS42 KFFC 191120
TAFPDK
TAF
KPDK 191120Z 1912/2012 14003KT 5SM -RA BR OVC008
      TEMPO 1912/1914 3SM BR BKN005
     FM191400 16005KT 6SM BR VCSH OVC008
     FM191600 19010KT P6SM -SHRA BKN012 OVC025
      TEMPO 1920/1922 4SM -TSRA BKN010CB
     FM192200 22010KT P6SM VCSH BKN030
     FM200200 23006KT P6SM VCSH BKN015=



000
FTUS42 KFFC 191120
TAFATL
TAF
KATL 191120Z 1912/2018 14006KT 5SM -RA BR OVC008
      TEMPO 1912/1914 3SM BR BKN005
     FM191400 16007KT 6SM BR VCSH OVC008
     FM191600 19010G18KT P6SM -SHRA BKN012 OVC025
      TEMPO 1920/1922 4SM -TSRA BKN010CB
     FM192200 22010G16KT P6SM VCSH BKN030
     FM200200 23008KT P6SM VCSH BKN015
     FM201500 22010G20KT P6SM SHRA OVC030=



000
FTUS42 KFFC 191120
TAFMCN
TAF
KMCN 191120Z 1912/2012 16006KT 6SM -SHRA BR OVC025
      TEMPO 1912/1916 4SM -RA BR OVC008
     FM191900 19008G16KT 4SM -TSRA BKN015CB OVC025
     FM192300 21008G16KT P6SM VCSH BKN015
     FM200000 21005KT P6SM BKN030
     FM200400 21005KT 4SM BR OVC004=



000
FTUS42 KFFC 191120
TAFRYY
TAF
KRYY 191120Z 1912/2012 14003KT 5SM -RA BR OVC008
      TEMPO 1912/1914 3SM BR BKN005
     FM191400 16005KT 6SM BR VCSH OVC008
     FM191600 19010KT P6SM -SHRA BKN012 OVC025
      TEMPO 1920/1922 4SM -TSRA BKN010CB
     FM192200 22010KT P6SM VCSH BKN030
     FM200200 23006KT P6SM VCSH BKN015=



000
FTUS42 KFFC 191120
TAFAHN
TAF
KAHN 191120Z 1912/2012 14003KT 4SM -RA BR OVC003
     FM191500 16005KT 6SM BR VCSH OVC008
     FM191800 19010KT P6SM -SHRA BKN012 OVC025
      TEMPO 1921/1923 4SM -TSRA BKN010CB
     FM192300 22010KT P6SM VCSH BKN030
     FM200200 23006KT P6SM VCSH BKN015=



000
FTUS42 KFFC 191120
TAFCSG
TAF
KCSG 191120Z 1912/2012 16006KT 6SM -SHRA BR OVC025
      TEMPO 1912/1915 4SM -RA BR OVC008
     FM191500 19008G16KT 4SM -SHRA BKN015 OVC025
      TEMPO 1915/1917 VRB20G30KT 2SM TSRA BKN010CB
     FM192100 21008G16KT P6SM VCSH BKN015
     FM200000 21005KT P6SM BKN030
     FM200700 21005KT 4SM BR OVC004=



000
FTUS42 KFFC 191120
TAFPDK
TAF
KPDK 191120Z 1912/2012 14003KT 5SM -RA BR OVC008
      TEMPO 1912/1914 3SM BR BKN005
     FM191400 16005KT 6SM BR VCSH OVC008
     FM191600 19010KT P6SM -SHRA BKN012 OVC025
      TEMPO 1920/1922 4SM -TSRA BKN010CB
     FM192200 22010KT P6SM VCSH BKN030
     FM200200 23006KT P6SM VCSH BKN015=



000
FTUS42 KFFC 191120
TAFAHN
TAF
KAHN 191120Z 1912/2012 14003KT 4SM -RA BR OVC003
     FM191500 16005KT 6SM BR VCSH OVC008
     FM191800 19010KT P6SM -SHRA BKN012 OVC025
      TEMPO 1921/1923 4SM -TSRA BKN010CB
     FM192300 22010KT P6SM VCSH BKN030
     FM200200 23006KT P6SM VCSH BKN015=



000
FTUS42 KFFC 191120
TAFFTY
TAF
KFTY 191120Z 1912/2012 14003KT 5SM -RA BR OVC008
      TEMPO 1912/1914 3SM BR BKN005
     FM191400 16005KT 6SM BR VCSH OVC008
     FM191600 19010KT P6SM -SHRA BKN012 OVC025
      TEMPO 1920/1922 4SM -TSRA BKN010CB
     FM192200 22010KT P6SM VCSH BKN030
     FM200200 23006KT P6SM VCSH BKN015=



000
FTUS42 KFFC 191120
TAFATL
TAF
KATL 191120Z 1912/2018 14006KT 5SM -RA BR OVC008
      TEMPO 1912/1914 3SM BR BKN005
     FM191400 16007KT 6SM BR VCSH OVC008
     FM191600 19010G18KT P6SM -SHRA BKN012 OVC025
      TEMPO 1920/1922 4SM -TSRA BKN010CB
     FM192200 22010G16KT P6SM VCSH BKN030
     FM200200 23008KT P6SM VCSH BKN015
     FM201500 22010G20KT P6SM SHRA OVC030=



000
FTUS42 KFFC 190952 AAB
TAFATL
TAF AMD
KATL 190952Z 1910/2012 13006KT 5SM -RA BR OVC008
      TEMPO 1910/1914 3SM BR BKN004
     FM191400 16007KT 6SM BR VCSH OVC008
     FM191600 19010G18KT P6SM -SHRA BKN012 OVC025
      TEMPO 1918/1920 4SM -TSRA BKN010CB
     FM192200 22010G16KT P6SM VCSH BKN030
     FM200000 23007KT P6SM VCSH BKN025=



000
FTUS42 KFFC 190801 AAA
TAFATL
TAF AMD
KATL 190801Z 1908/2012 13005KT 6SM -RA BKN004 OVC012
      TEMPO 1908/1910 -SHRA SCT004 OVC012
     FM191000 13006KT 4SM -SHRA BR OVC008
      TEMPO 1914/1916 4SM -TSRA BKN010CB
     FM191600 19010G18KT 4SM -SHRA BKN012 OVC025
     FM191800 21012G20KT P6SM BKN015
     FM192100 22010G16KT P6SM VCSH BKN030
     FM200000 23007KT P6SM VCSH BKN025=



000
FTUS42 KFFC 190801 AAA
TAFATL
TAF AMD
KATL 190801Z 1908/2012 13005KT 6SM -RA BKN004 OVC012
      TEMPO 1908/1910 -SHRA SCT004 OVC012
     FM191000 13006KT 4SM -SHRA BR OVC008
      TEMPO 1914/1916 4SM -TSRA BKN010CB
     FM191600 19010G18KT 4SM -SHRA BKN012 OVC025
     FM191800 21012G20KT P6SM BKN015
     FM192100 22010G16KT P6SM VCSH BKN030
     FM200000 23007KT P6SM VCSH BKN025=



000
FTUS42 KFFC 190520
TAFRYY
TAF
KRYY 190520Z 1906/2006 00000KT 6SM -RA BKN006 OVC012
      TEMPO 1906/1910 -SHRA SCT004 OVC012
     FM191000 13003KT 4SM -SHRA BR OVC008
      TEMPO 1914/1916 4SM -TSRA BKN010CB
     FM191600 19010KT 4SM -SHRA BKN012 OVC025
     FM191800 21010KT P6SM BKN015
     FM192100 22010G16KT P6SM VCSH BKN030
      AMD NOT SKED TIL 191200=



000
FTUS42 KFFC 190520
TAFCSG
TAF
KCSG 190520Z 1906/2006 15003KT P6SM -RA OVC050
     FM190900 18006KT 4SM -SHRA BR OVC015
     FM191200 19006KT 4SM -SHRA BR OVC012
      TEMPO 1912/1915 4SM -TSRA BKN008CB
     FM191500 19008G16KT 4SM -TSRA BKN010CB OVC025
     FM191700 21010G18KT P6SM VCSH BKN015
     FM192100 21010G18KT P6SM VCSH BKN030=



000
FTUS42 KFFC 190520
TAFAHN
TAF
KAHN 190520Z 1906/2006 00000KT 6SM -RA SCT004 BKN050
      TEMPO 1906/1910 -SHRA BKN004 OVC012
     FM191000 13003KT 4SM -SHRA BR OVC008
      TEMPO 1915/1917 4SM -TSRA BKN010CB
     FM191700 19010KT 4SM -SHRA BKN012 OVC025
     FM191900 21010KT P6SM BKN015
     FM192100 22010G16KT P6SM VCSH BKN030=



000
FTUS42 KFFC 190520
TAFATL
TAF
KATL 190520Z 1906/2012 13005KT 6SM -RA BKN003 OVC012
      TEMPO 1906/1910 -SHRA SCT004 OVC012
     FM191000 13006KT 4SM -SHRA BR OVC008
      TEMPO 1914/1916 4SM -TSRA BKN010CB
     FM191600 19010G18KT 4SM -SHRA BKN012 OVC025
     FM191800 21012G20KT P6SM BKN015
     FM192100 22010G16KT P6SM VCSH BKN030
     FM200000 23007KT P6SM VCSH BKN025=



000
FTUS42 KFFC 190520
TAFMCN
TAF
KMCN 190520Z 1906/2006 15005KT 6SM BR OVC080
      TEMPO 1906/1910 2SM BR OVC040
     FM191000 16006KT 4SM -SHRA BR OVC025
     FM191300 16006KT 3SM -SHRA BR OVC008
     FM191700 19008G16KT 4SM -TSRA BKN015CB OVC025
     FM192100 21008G16KT P6SM VCSH BKN015
     FM200000 21005KT P6SM BKN030=



000
FTUS42 KFFC 190520
TAFCSG
TAF
KCSG 190520Z 1906/2006 15003KT P6SM -RA OVC050
     FM190900 18006KT 4SM -SHRA BR OVC015
     FM191200 19006KT 4SM -SHRA BR OVC012
      TEMPO 1912/1915 4SM -TSRA BKN008CB
     FM191500 19008G16KT 4SM -TSRA BKN010CB OVC025
     FM191700 21010G18KT P6SM VCSH BKN015
     FM192100 21010G18KT P6SM VCSH BKN030=



000
FTUS42 KFFC 190520
TAFAHN
TAF
KAHN 190520Z 1906/2006 00000KT 6SM -RA SCT004 BKN050
      TEMPO 1906/1910 -SHRA BKN004 OVC012
     FM191000 13003KT 4SM -SHRA BR OVC008
      TEMPO 1915/1917 4SM -TSRA BKN010CB
     FM191700 19010KT 4SM -SHRA BKN012 OVC025
     FM191900 21010KT P6SM BKN015
     FM192100 22010G16KT P6SM VCSH BKN030=



000
FTUS42 KFFC 190520
TAFATL
TAF
KATL 190520Z 1906/2012 13005KT 6SM -RA BKN003 OVC012
      TEMPO 1906/1910 -SHRA SCT004 OVC012
     FM191000 13006KT 4SM -SHRA BR OVC008
      TEMPO 1914/1916 4SM -TSRA BKN010CB
     FM191600 19010G18KT 4SM -SHRA BKN012 OVC025
     FM191800 21012G20KT P6SM BKN015
     FM192100 22010G16KT P6SM VCSH BKN030
     FM200000 23007KT P6SM VCSH BKN025=



000
FTUS42 KFFC 190520
TAFMCN
TAF
KMCN 190520Z 1906/2006 15005KT 6SM BR OVC080
      TEMPO 1906/1910 2SM BR OVC040
     FM191000 16006KT 4SM -SHRA BR OVC025
     FM191300 16006KT 3SM -SHRA BR OVC008
     FM191700 19008G16KT 4SM -TSRA BKN015CB OVC025
     FM192100 21008G16KT P6SM VCSH BKN015
     FM200000 21005KT P6SM BKN030=



000
FTUS42 KFFC 190520
TAFFTY
TAF
KFTY 190520Z 1906/2006 00000KT 6SM -RA BKN006 OVC012
      TEMPO 1906/1910 -SHRA SCT004 OVC012
     FM191000 13003KT 4SM -SHRA BR OVC008
      TEMPO 1914/1916 4SM -TSRA BKN010CB
     FM191600 19010KT 4SM -SHRA BKN012 OVC025
     FM191800 21010KT P6SM BKN015
     FM192100 22010G16KT P6SM VCSH BKN030=



000
FTUS42 KFFC 190520
TAFPDK
TAF
KPDK 190520Z 1906/2006 00000KT 6SM -RA BKN006 OVC012
      TEMPO 1906/1910 -SHRA SCT004 OVC012
     FM191000 13003KT 4SM -SHRA BR OVC008
      TEMPO 1914/1916 4SM -TSRA BKN010CB
     FM191600 19010KT 4SM -SHRA BKN012 OVC025
     FM191800 21010KT P6SM BKN015
     FM192100 22010G16KT P6SM VCSH BKN030=



000
FTUS42 KFFC 190520
TAFRYY
TAF
KRYY 190520Z 1906/2006 00000KT 6SM -RA BKN006 OVC012
      TEMPO 1906/1910 -SHRA SCT004 OVC012
     FM191000 13003KT 4SM -SHRA BR OVC008
      TEMPO 1914/1916 4SM -TSRA BKN010CB
     FM191600 19010KT 4SM -SHRA BKN012 OVC025
     FM191800 21010KT P6SM BKN015
     FM192100 22010G16KT P6SM VCSH BKN030
      AMD NOT SKED TIL 191200=



000
FTUS42 KFFC 190520
TAFFTY
TAF
KFTY 190520Z 1906/2006 00000KT 6SM -RA BKN006 OVC012
      TEMPO 1906/1910 -SHRA SCT004 OVC012
     FM191000 13003KT 4SM -SHRA BR OVC008
      TEMPO 1914/1916 4SM -TSRA BKN010CB
     FM191600 19010KT 4SM -SHRA BKN012 OVC025
     FM191800 21010KT P6SM BKN015
     FM192100 22010G16KT P6SM VCSH BKN030=



000
FTUS42 KFFC 190520
TAFPDK
TAF
KPDK 190520Z 1906/2006 00000KT 6SM -RA BKN006 OVC012
      TEMPO 1906/1910 -SHRA SCT004 OVC012
     FM191000 13003KT 4SM -SHRA BR OVC008
      TEMPO 1914/1916 4SM -TSRA BKN010CB
     FM191600 19010KT 4SM -SHRA BKN012 OVC025
     FM191800 21010KT P6SM BKN015
     FM192100 22010G16KT P6SM VCSH BKN030=



000
FTUS42 KFFC 190443 AAA
TAFPDK
TAF AMD
KPDK 190443Z 1905/1924 13005KT 6SM -RA OVC012
      TEMPO 1905/1909 BKN006
     FM190900 13006KT 4SM -SHRA BR OVC009
     FM191500 19008G16KT 4SM -TSRA BKN010CB OVC025
     FM191700 21010G18KT P6SM BKN015
     FM192100 21010G18KT P6SM BKN030=



000
FTUS42 KFFC 190409 AAD
TAFATL
TAF AMD
KATL 190409Z 1904/2006 13006KT P6SM SCT008 BKN015
      TEMPO 1904/1906 BKN004
     FM190600 13005KT 6SM -RA OVC010
     FM190900 13006KT 4SM -SHRA BR OVC009
      TEMPO 1912/1915 4SM -TSRA BKN010CB
     FM191500 19010G18KT 4SM -TSRA BKN010CB OVC025
     FM191700 21012G20KT P6SM BKN015
     FM192100 22010G16KT P6SM BKN030
     FM200000 23007KT P6SM BKN025=



000
FTUS42 KFFC 190336 AAA
TAFCSG
TAF AMD
KCSG 190336Z 1904/1924 VRB04KT 4SM -SHRA BKN020 BKN040
     FM190500 15005KT 6SM -RA OVC015
     FM190900 18006KT 4SM -SHRA BR OVC009
      TEMPO 1912/1915 4SM -TSRA BKN010CB
     FM191500 19008G16KT 4SM -TSRA BKN010CB OVC025
     FM191700 21010G18KT P6SM BKN015
     FM192100 21010G18KT P6SM BKN030=



000
FTUS42 KFFC 190336 AAA
TAFCSG
TAF AMD
KCSG 190336Z 1904/1924 VRB04KT 4SM -SHRA BKN020 BKN040
     FM190500 15005KT 6SM -RA OVC015
     FM190900 18006KT 4SM -SHRA BR OVC009
      TEMPO 1912/1915 4SM -TSRA BKN010CB
     FM191500 19008G16KT 4SM -TSRA BKN010CB OVC025
     FM191700 21010G18KT P6SM BKN015
     FM192100 21010G18KT P6SM BKN030=



000
FTUS42 KFFC 190334 AAC
TAFATL
TAF AMD
KATL 190334Z 1904/2006 13006KT P6SM SCT015 BKN025
     FM190500 13005KT 6SM -RA OVC015
     FM190900 13006KT 4SM -SHRA BR OVC009
      TEMPO 1912/1915 4SM -TSRA BKN010CB
     FM191500 19010G18KT 4SM -TSRA BKN010CB OVC025
     FM191700 21012G20KT P6SM BKN015
     FM192100 22010G16KT P6SM BKN030
     FM200000 23007KT P6SM BKN025=



000
FTUS42 KFFC 190258 AAB
TAFATL
TAF AMD
KATL 190258Z 1903/2006 13006KT P6SM SCT006 BKN025
     FM190500 13005KT 6SM -RA OVC015
     FM190900 13006KT 4SM -SHRA BR OVC009 PROB30 1912/1915 4SM -TSRA
      BKN010CB
     FM191500 19010G18KT 4SM -TSRA BKN010CB OVC025
     FM191700 21012G20KT P6SM BKN015
     FM192100 22010G16KT P6SM BKN030
     FM200000 23007KT P6SM BKN025=



000
FTUS42 KFFC 190258 AAB
TAFATL
TAF AMD
KATL 190258Z 1903/2006 13006KT P6SM SCT006 BKN025
     FM190500 13005KT 6SM -RA OVC015
     FM190900 13006KT 4SM -SHRA BR OVC009 PROB30 1912/1915 4SM -TSRA
      BKN010CB
     FM191500 19010G18KT 4SM -TSRA BKN010CB OVC025
     FM191700 21012G20KT P6SM BKN015
     FM192100 22010G16KT P6SM BKN030
     FM200000 23007KT P6SM BKN025=



000
FTUS42 KFFC 190209 AAA
TAFATL
TAF AMD
KATL 190209Z 1902/2006 08006KT P6SM FEW006 SCT015 BKN100
     FM190500 13005KT 6SM -RA OVC015
     FM190900 13006KT 4SM -SHRA BR OVC009 PROB30 1912/1915 4SM -TSRA
      BKN010CB
     FM191500 19010G18KT 4SM -TSRA BKN010CB OVC025
     FM191700 21012G20KT P6SM BKN015
     FM192100 22010G16KT P6SM BKN030
     FM200000 23007KT P6SM BKN025=



000
FTUS42 KFFC 182358 AAA
TAFMCN
TAF AMD
KMCN 182358Z 1900/1924 VRB04KT P6SM VCTS BKN060CB
     FM190100 VRB04KT P6SM SCT020 BKN040
     FM190500 15005KT 6SM -RA OVC015
     FM190900 18006KT 4SM -SHRA BR OVC007 PROB30 1912/1916 4SM -TSRA
      BKN010CB
     FM191600 19008G16KT 4SM -TSRA BKN010CB OVC025
     FM192000 21008G16KT P6SM BKN015
     FM192300 21008G16KT P6SM BKN030=



000
FTUS42 KFFC 182358 AAA
TAFMCN
TAF AMD
KMCN 182358Z 1900/1924 VRB04KT P6SM VCTS BKN060CB
     FM190100 VRB04KT P6SM SCT020 BKN040
     FM190500 15005KT 6SM -RA OVC015
     FM190900 18006KT 4SM -SHRA BR OVC007 PROB30 1912/1916 4SM -TSRA
      BKN010CB
     FM191600 19008G16KT 4SM -TSRA BKN010CB OVC025
     FM192000 21008G16KT P6SM BKN015
     FM192300 21008G16KT P6SM BKN030=



000
FTUS42 KFFC 182334
TAFRYY
TAF
KRYY 182334Z 1900/1924 VRB04KT P6SM SCT020 BKN030
     FM190500 12005KT 6SM -RA OVC015
     FM190900 13006KT 4SM -SHRA BR OVC009 PROB30 1912/1915 4SM -TSRA
      BKN010CB
     FM191500 19008G16KT 4SM -TSRA BKN010CB OVC025
     FM191700 21010G18KT P6SM BKN015
     FM192100 21010G18KT P6SM BKN030
      AMD NOT SKED 1904/1912=



000
FTUS42 KFFC 182334
TAFPDK
TAF
KPDK 182334Z 1900/1924 VRB04KT P6SM SCT020 BKN060
     FM190500 13005KT 6SM -RA OVC015
     FM190900 13006KT 4SM -SHRA BR OVC009 PROB30 1912/1915 4SM -TSRA
      BKN010CB
     FM191500 19008G16KT 4SM -TSRA BKN010CB OVC025
     FM191700 21010G18KT P6SM BKN015
     FM192100 21010G18KT P6SM BKN030=



000
FTUS42 KFFC 182334
TAFCSG
TAF
KCSG 182334Z 1900/1924 VRB04KT P6SM SCT020 BKN040
     FM190500 15005KT 6SM -RA OVC015
     FM190900 18006KT 4SM -SHRA BR OVC009 PROB30 1912/1915 4SM -TSRA
      BKN010CB
     FM191500 19008G16KT 4SM -TSRA BKN010CB OVC025
     FM191700 21010G18KT P6SM BKN015
     FM192100 21010G18KT P6SM BKN030=



000
FTUS42 KFFC 182334
TAFAHN
TAF
KAHN 182334Z 1900/1924 VRB04KT P6SM SCT020 BKN040
     FM190500 15005KT 6SM -RA OVC015
     FM190900 18006KT 4SM -SHRA BR OVC005 PROB30 1912/1916 4SM -TSRA
      BKN010CB
     FM191600 19008G16KT 4SM -TSRA BKN010CB OVC025
     FM192000 21008G16KT P6SM BKN015
     FM192300 21008G16KT P6SM BKN030=



000
FTUS42 KFFC 182334
TAFFTY
TAF
KFTY 182334Z 1900/1924 VRB04KT P6SM SCT015 BKN050
     FM190500 13005KT 6SM -RA OVC015
     FM190900 13006KT 4SM -SHRA BR OVC009 PROB30 1912/1915 4SM -TSRA
      BKN010CB
     FM191500 19008G16KT 4SM -TSRA BKN010CB OVC025
     FM191700 21010G18KT P6SM BKN015
     FM192100 21010G18KT P6SM BKN030=



000
FTUS42 KFFC 182334
TAFMCN
TAF
KMCN 182334Z 1900/1924 VRB04KT P6SM SCT020 BKN040
     FM190500 15005KT 6SM -RA OVC015
     FM190900 18006KT 4SM -SHRA BR OVC007 PROB30 1912/1916 4SM -TSRA
      BKN010CB
     FM191600 19008G16KT 4SM -TSRA BKN010CB OVC025
     FM192000 21008G16KT P6SM BKN015
     FM192300 21008G16KT P6SM BKN030=



000
FTUS42 KFFC 182334
TAFATL
TAF
KATL 182334Z 1900/2006 10006KT P6SM SCT015 BKN050
     FM190500 13005KT 6SM -RA OVC015
     FM190900 13006KT 4SM -SHRA BR OVC009 PROB30 1912/1915 4SM -TSRA
      BKN010CB
     FM191500 19010G18KT 4SM -TSRA BKN010CB OVC025
     FM191700 21012G20KT P6SM BKN015
     FM192100 22010G16KT P6SM BKN030
     FM200000 23007KT P6SM BKN025=



000
FTUS42 KFFC 182334
TAFRYY
TAF
KRYY 182334Z 1900/1924 VRB04KT P6SM SCT020 BKN030
     FM190500 12005KT 6SM -RA OVC015
     FM190900 13006KT 4SM -SHRA BR OVC009 PROB30 1912/1915 4SM -TSRA
      BKN010CB
     FM191500 19008G16KT 4SM -TSRA BKN010CB OVC025
     FM191700 21010G18KT P6SM BKN015
     FM192100 21010G18KT P6SM BKN030
      AMD NOT SKED 1904/1912=



000
FTUS42 KFFC 182334
TAFPDK
TAF
KPDK 182334Z 1900/1924 VRB04KT P6SM SCT020 BKN060
     FM190500 13005KT 6SM -RA OVC015
     FM190900 13006KT 4SM -SHRA BR OVC009 PROB30 1912/1915 4SM -TSRA
      BKN010CB
     FM191500 19008G16KT 4SM -TSRA BKN010CB OVC025
     FM191700 21010G18KT P6SM BKN015
     FM192100 21010G18KT P6SM BKN030=



000
FTUS42 KFFC 182334
TAFCSG
TAF
KCSG 182334Z 1900/1924 VRB04KT P6SM SCT020 BKN040
     FM190500 15005KT 6SM -RA OVC015
     FM190900 18006KT 4SM -SHRA BR OVC009 PROB30 1912/1915 4SM -TSRA
      BKN010CB
     FM191500 19008G16KT 4SM -TSRA BKN010CB OVC025
     FM191700 21010G18KT P6SM BKN015
     FM192100 21010G18KT P6SM BKN030=



000
FTUS42 KFFC 182334
TAFATL
TAF
KATL 182334Z 1900/2006 10006KT P6SM SCT015 BKN050
     FM190500 13005KT 6SM -RA OVC015
     FM190900 13006KT 4SM -SHRA BR OVC009 PROB30 1912/1915 4SM -TSRA
      BKN010CB
     FM191500 19010G18KT 4SM -TSRA BKN010CB OVC025
     FM191700 21012G20KT P6SM BKN015
     FM192100 22010G16KT P6SM BKN030
     FM200000 23007KT P6SM BKN025=



000
FTUS42 KFFC 182334
TAFMCN
TAF
KMCN 182334Z 1900/1924 VRB04KT P6SM SCT020 BKN040
     FM190500 15005KT 6SM -RA OVC015
     FM190900 18006KT 4SM -SHRA BR OVC007 PROB30 1912/1916 4SM -TSRA
      BKN010CB
     FM191600 19008G16KT 4SM -TSRA BKN010CB OVC025
     FM192000 21008G16KT P6SM BKN015
     FM192300 21008G16KT P6SM BKN030=



000
FTUS42 KFFC 182334
TAFAHN
TAF
KAHN 182334Z 1900/1924 VRB04KT P6SM SCT020 BKN040
     FM190500 15005KT 6SM -RA OVC015
     FM190900 18006KT 4SM -SHRA BR OVC005 PROB30 1912/1916 4SM -TSRA
      BKN010CB
     FM191600 19008G16KT 4SM -TSRA BKN010CB OVC025
     FM192000 21008G16KT P6SM BKN015
     FM192300 21008G16KT P6SM BKN030=



000
FTUS42 KFFC 182334
TAFFTY
TAF
KFTY 182334Z 1900/1924 VRB04KT P6SM SCT015 BKN050
     FM190500 13005KT 6SM -RA OVC015
     FM190900 13006KT 4SM -SHRA BR OVC009 PROB30 1912/1915 4SM -TSRA
      BKN010CB
     FM191500 19008G16KT 4SM -TSRA BKN010CB OVC025
     FM191700 21010G18KT P6SM BKN015
     FM192100 21010G18KT P6SM BKN030=



000
FTUS42 KFFC 182203 AAB
TAFAHN
TAF AMD
KAHN 182203Z 1822/1918 VRB04KT P6SM -RA SCT025 BKN045
     FM190400 12004KT 6SM -RA BKN020
     FM190700 11005KT 3SM -SHRA BR OVC007
     FM191500 16008KT 4SM -SHRA BR OVC012 PROB30 1915/1918 3SM TSRA
      BKN010CB OVC012=



000
FTUS42 KFFC 182202 AAB
TAFATL
TAF AMD
KATL 182202Z 1822/1924 10006KT P6SM FEW015 BKN035
     FM190400 13005KT 6SM -RA OVC015
     FM190600 13006KT 4SM -SHRA BR OVC005
     FM191400 19010KT 6SM -SHRA BKN010 OVC025 PROB30 1914/1918 3SM
      TSRA BKN010CB OVC012
     FM191800 21010G16KT P6SM BKN025
     FM192200 22010G16KT P6SM BKN035=



000
FTUS42 KFFC 182144 AAB
TAFFTY
TAF AMD
KFTY 182144Z 1822/1918 12005KT P6SM -RA SCT020 BKN030
     FM190400 13004KT 6SM -RA OVC015
     FM190600 13004KT 4SM -SHRA BR OVC005
     FM191400 19008KT 6SM -SHRA BKN010 OVC025 PROB30 1914/1918 3SM
      TSRA BKN010CB OVC012=



000
FTUS42 KFFC 182143 AAB
TAFPDK
TAF AMD
KPDK 182143Z 1822/1918 14005KT P6SM -RA BKN020 BKN035
     FM190400 13004KT 6SM -RA OVC015
     FM190600 13004KT 4SM -SHRA BR OVC005
     FM191400 19008KT 6SM -SHRA BKN010 OVC025 PROB30 1914/1918 3SM
      TSRA BKN010CB OVC012=



000
FTUS42 KFFC 182010 AAA
TAFPDK
TAF AMD
KPDK 182010Z 1820/1918 14005KT P6SM -RA FEW020 BKN035
     FM190400 13004KT 6SM -RA OVC015
     FM190600 13004KT 4SM -SHRA BR OVC005
     FM191400 19008KT 6SM -SHRA BKN010 OVC025 PROB30 1914/1918 3SM
      TSRA BKN010CB OVC012=



000
FTUS42 KFFC 182010 AAA
TAFFTY
TAF AMD
KFTY 182010Z 1820/1918 14005KT P6SM -RA FEW020 BKN035
     FM190400 13004KT 6SM -RA OVC015
     FM190600 13004KT 4SM -SHRA BR OVC005
     FM191400 19008KT 6SM -SHRA BKN010 OVC025 PROB30 1914/1918 3SM
      TSRA BKN010CB OVC012=



000
FTUS42 KFFC 182010 AAA
TAFAHN
TAF AMD
KAHN 182010Z 1820/1918 14005KT P6SM -RA OVC015
     FM182100 11005KT P6SM -RA OVC025
     FM190400 12004KT 6SM -RA BKN020
     FM190700 11005KT 3SM -SHRA BR OVC007
     FM191500 16008KT 4SM -SHRA BR OVC012 PROB30 1915/1918 3SM TSRA
      BKN010CB OVC012=



000
FTUS42 KFFC 182009 AAA
TAFATL
TAF AMD
KATL 182009Z 1820/1924 13006KT P6SM -RA FEW020 BKN040
     FM190400 13005KT 6SM -RA OVC015
     FM190600 13006KT 4SM -SHRA BR OVC005
     FM191400 19010KT 6SM -SHRA BKN010 OVC025 PROB30 1914/1918 3SM
      TSRA BKN010CB OVC012
     FM191800 21010G16KT P6SM BKN025
     FM192200 22010G16KT P6SM BKN035=



000
FTUS42 KFFC 181741
TAFAHN
TAF
KAHN 181741Z 1818/1918 14005KT P6SM -RA OVC015
     FM182000 11005KT P6SM -RA OVC025
     FM190400 12004KT 6SM -RA BKN020
     FM190700 11005KT 3SM -SHRA BR OVC007
     FM191500 16008KT 4SM -SHRA BR OVC012 PROB30 1915/1918 3SM TSRA
      BKN010CB OVC012=



000
FTUS42 KFFC 181741
TAFPDK
TAF
KPDK 181741Z 1818/1918 14005KT P6SM -RA BKN015
     FM182000 14005KT P6SM -RA BKN022
     FM190400 13004KT 6SM -RA OVC015
     FM190600 13004KT 4SM -SHRA BR OVC005
     FM191400 19008KT 6SM -SHRA BKN010 OVC025 PROB30 1914/1918 3SM
      TSRA BKN010CB OVC012=



000
FTUS42 KFFC 181741
TAFFTY
TAF
KFTY 181741Z 1818/1918 14005KT P6SM -RA BKN015
     FM182000 14005KT P6SM -RA BKN022
     FM190400 13004KT 6SM -RA OVC015
     FM190600 13004KT 4SM -SHRA BR OVC005
     FM191400 19008KT 6SM -SHRA BKN010 OVC025 PROB30 1914/1918 3SM
      TSRA BKN010CB OVC012=



000
FTUS42 KFFC 181741
TAFATL
TAF
KATL 181741Z 1818/1924 12007KT P6SM -RA BKN015
     FM182000 13006KT P6SM -RA BKN022
     FM190400 13005KT 6SM -RA OVC015
     FM190600 13006KT 4SM -SHRA BR OVC005
     FM191400 19010KT 6SM -SHRA BKN010 OVC025 PROB30 1914/1918 3SM
      TSRA BKN010CB OVC012
     FM191800 21010G16KT P6SM BKN025
     FM192200 22010G16KT P6SM BKN035=



000
FTUS42 KFFC 181741
TAFMCN
TAF
KMCN 181741Z 1818/1918 18005KT P6SM VCSH BKN025
     FM182000 20005KT P6SM VCSH BKN035
     FM190200 12003KT 6SM -SHRA OVC025
     FM190600 15003KT 3SM -SHRA OVC008
     FM191500 17008KT 6SM -SHRA OVC015 PROB30 1915/1918 3SM TSRA
      BKN010CB OVC012=



000
FTUS42 KFFC 181741
TAFCSG
TAF
KCSG 181741Z 1818/1918 19005KT P6SM VCSH BKN025
     FM182000 18005KT P6SM BKN035
     FM190100 12004KT 6SM -RA BKN015
     FM190400 14006KT 3SM SHRA BR OVC006 PROB30 1912/1914 3SM TSRA
      BKN010CB OVC012
     FM191400 19009KT 6SM -SHRA OVC015
     FM191700 21009KT 6SM -SHRA BKN025=



000
FTUS42 KFFC 181741
TAFCSG
TAF
KCSG 181741Z 1818/1918 19005KT P6SM VCSH BKN025
     FM182000 18005KT P6SM BKN035
     FM190100 12004KT 6SM -RA BKN015
     FM190400 14006KT 3SM SHRA BR OVC006 PROB30 1912/1914 3SM TSRA
      BKN010CB OVC012
     FM191400 19009KT 6SM -SHRA OVC015
     FM191700 21009KT 6SM -SHRA BKN025=



000
FTUS42 KFFC 181741
TAFRYY
TAF
KRYY 181741Z 1818/1918 14007KT P6SM -RA BKN015
     FM182000 14005KT P6SM -RA BKN022
     FM190400 13004KT 6SM -RA OVC015
     FM190600 13004KT 4SM -SHRA BR OVC005
     FM191400 19008KT 6SM -SHRA BKN010 OVC025 PROB30 1914/1918 3SM
      TSRA BKN010CB OVC012=



000
FTUS42 KFFC 181741
TAFMCN
TAF
KMCN 181741Z 1818/1918 18005KT P6SM VCSH BKN025
     FM182000 20005KT P6SM VCSH BKN035
     FM190200 12003KT 6SM -SHRA OVC025
     FM190600 15003KT 3SM -SHRA OVC008
     FM191500 17008KT 6SM -SHRA OVC015 PROB30 1915/1918 3SM TSRA
      BKN010CB OVC012=



000
FTUS42 KFFC 181606 AAB
TAFMCN
TAF AMD
KMCN 181606Z 1816/1912 26005KT P6SM OVC015
     FM181800 18005KT P6SM VCSH BKN025
     FM190400 11004KT P6SM -RA BKN015
     FM190700 13006KT 3SM -SHRA BR BKN006 OVC012=



000
FTUS42 KFFC 181606 AAA
TAFCSG
TAF AMD
KCSG 181606Z 1816/1912 23004KT P6SM OVC016
     FM181800 19006KT P6SM VCSH BKN025
     FM190100 12004KT 6SM -RA BKN015
     FM190400 13006KT 3SM -SHRA BR BKN006 OVC012 PROB30 1910/1912
      1SM TSRA BKN004CB OVC008=



000
FTUS42 KFFC 181603 AAA
TAFRYY
TAF AMD
KRYY 181603Z 1816/1912 07008KT P6SM BKN015
     FM181800 11007KT P6SM VCSH BKN025
     FM190300 12004KT P6SM -RA BKN015
     FM190600 13006KT 3SM -SHRA BR BKN006 OVC012=



000
FTUS42 KFFC 181603 AAA
TAFRYY
TAF AMD
KRYY 181603Z 1816/1912 07008KT P6SM BKN015
     FM181800 11007KT P6SM VCSH BKN025
     FM190300 12004KT P6SM -RA BKN015
     FM190600 13006KT 3SM -SHRA BR BKN006 OVC012=



000
FTUS42 KFFC 181602 AAA
TAFPDK
TAF AMD
KPDK 181602Z 1816/1912 07005KT P6SM OVC017
     FM181800 11006KT P6SM VCSH BKN025
     FM190300 12004KT P6SM -RA BKN015
     FM190600 13006KT 3SM -SHRA BR BKN006 OVC012=



000
FTUS42 KFFC 181602 AAA
TAFFTY
TAF AMD
KFTY 181602Z 1816/1912 07005KT P6SM OVC015
     FM181800 11006KT P6SM VCSH BKN022
     FM190300 12004KT P6SM -RA BKN015
     FM190600 13006KT 3SM -SHRA BR BKN006 OVC012=



000
FTUS42 KFFC 181600 AAB
TAFATL
TAF AMD
KATL 181600Z 1816/1918 09007KT P6SM OVC010
     FM181800 11008KT P6SM VCSH BKN022
     FM190300 12006KT P6SM -RA BKN015
     FM190600 13006KT 3SM -SHRA BR BKN006 OVC012
     FM191400 19010KT 6SM -SHRA BKN010 OVC025 PROB30 1914/1918 3SM
      TSRA BKN010CB OVC012=



000
FTUS42 KFFC 181346 AAA
TAFATL
TAF AMD
KATL 181346Z 1814/1918 06007KT 6SM -DZ BR OVC004
     FM181600 07007KT P6SM BKN008 OVC014
     FM181800 11008KT P6SM VCSH BKN025
     FM190300 12006KT P6SM -RA BKN015
     FM190600 13006KT 3SM -SHRA BR BKN006 OVC012
     FM191400 19010KT 6SM -SHRA BKN010 OVC025 PROB30 1914/1918 3SM
      TSRA BKN010CB OVC012=



000
FTUS42 KFFC 181307 AAA
TAFMCN
TAF AMD
KMCN 181307Z 1813/1912 04004KT 6SM BR OVC004
      TEMPO 1813/1815 1SM -DZ BR OVC003
     FM181500 07005KT 6SM BR BKN007 OVC022
     FM181800 16006KT P6SM VCSH BKN025
     FM190400 11004KT P6SM -RA BKN015
     FM190700 13006KT 3SM -SHRA BR BKN006 OVC012=



000
FTUS42 KFFC 181307 AAA
TAFMCN
TAF AMD
KMCN 181307Z 1813/1912 04004KT 6SM BR OVC004
      TEMPO 1813/1815 1SM -DZ BR OVC003
     FM181500 07005KT 6SM BR BKN007 OVC022
     FM181800 16006KT P6SM VCSH BKN025
     FM190400 11004KT P6SM -RA BKN015
     FM190700 13006KT 3SM -SHRA BR BKN006 OVC012=



000
FTUS42 KFFC 181126
TAFPDK
TAF
KPDK 181126Z 1812/1912 VRB03KT 4SM -DZ BR OVC004
     FM181400 07005KT P6SM BKN008 OVC012
     FM181800 11006KT P6SM VCSH BKN025
     FM190300 12004KT P6SM -RA BKN015
     FM190600 13006KT 3SM -SHRA BR BKN006 OVC012=



000
FTUS42 KFFC 181126
TAFAHN
TAF
KAHN 181126Z 1812/1912 08005KT 6SM BR BKN003 OVC025
      TEMPO 1812/1814 4SM -DZ BR
     FM181400 07005KT P6SM BKN008 OVC025
     FM181800 11006KT P6SM VCSH BKN025
     FM190500 12004KT P6SM -RA BKN015
     FM190800 13006KT 3SM -SHRA BR BKN006 OVC012=



000
FTUS42 KFFC 181126
TAFCSG
TAF
KCSG 181126Z 1812/1912 VRB03KT 6SM BR OVC003
      TEMPO 1812/1814 4SM -DZ BR
     FM181400 07005KT P6SM BKN009 OVC016
     FM181700 11006KT P6SM VCSH BKN025
     FM190100 12004KT 6SM -RA BKN015
     FM190400 13006KT 3SM -SHRA BR BKN006 OVC012 PROB30 1910/1912
      1SM TSRA BKN004CB OVC008=



000
FTUS42 KFFC 181126
TAFMCN
TAF
KMCN 181126Z 1812/1912 04004KT 6SM BR OVC004
      TEMPO 1812/1814 4SM -DZ BR
     FM181400 07005KT P6SM BKN008 OVC022
     FM181800 16006KT P6SM VCSH BKN025
     FM190400 11004KT P6SM -RA BKN015
     FM190700 13006KT 3SM -SHRA BR BKN006 OVC012=



000
FTUS42 KFFC 181126
TAFMCN
TAF
KMCN 181126Z 1812/1912 04004KT 6SM BR OVC004
      TEMPO 1812/1814 4SM -DZ BR
     FM181400 07005KT P6SM BKN008 OVC022
     FM181800 16006KT P6SM VCSH BKN025
     FM190400 11004KT P6SM -RA BKN015
     FM190700 13006KT 3SM -SHRA BR BKN006 OVC012=



000
FTUS42 KFFC 181126
TAFRYY
TAF
KRYY 181126Z 1812/1912 03004KT 2SM -DZ BR OVC003
     FM181400 07007KT P6SM BKN008 OVC015
     FM181800 11007KT P6SM VCSH BKN025
     FM190300 12004KT P6SM -RA BKN015
     FM190600 13006KT 3SM -SHRA BR BKN006 OVC012=



000
FTUS42 KFFC 181126
TAFRYY
TAF
KRYY 181126Z 1812/1912 03004KT 2SM -DZ BR OVC003
     FM181400 07007KT P6SM BKN008 OVC015
     FM181800 11007KT P6SM VCSH BKN025
     FM190300 12004KT P6SM -RA BKN015
     FM190600 13006KT 3SM -SHRA BR BKN006 OVC012=



000
FTUS42 KFFC 181126
TAFAHN
TAF
KAHN 181126Z 1812/1912 08005KT 6SM BR BKN003 OVC025
      TEMPO 1812/1814 4SM -DZ BR
     FM181400 07005KT P6SM BKN008 OVC025
     FM181800 11006KT P6SM VCSH BKN025
     FM190500 12004KT P6SM -RA BKN015
     FM190800 13006KT 3SM -SHRA BR BKN006 OVC012=



000
FTUS42 KFFC 181126
TAFCSG
TAF
KCSG 181126Z 1812/1912 VRB03KT 6SM BR OVC003
      TEMPO 1812/1814 4SM -DZ BR
     FM181400 07005KT P6SM BKN009 OVC016
     FM181700 11006KT P6SM VCSH BKN025
     FM190100 12004KT 6SM -RA BKN015
     FM190400 13006KT 3SM -SHRA BR BKN006 OVC012 PROB30 1910/1912
      1SM TSRA BKN004CB OVC008=



000
FTUS42 KFFC 181126
TAFATL
TAF
KATL 181126Z 1812/1918 06006KT 4SM -DZ BR OVC003
     FM181400 07006KT P6SM BKN008 OVC014
     FM181800 11008KT P6SM VCSH BKN025
     FM190300 12006KT P6SM -RA BKN015
     FM190600 13006KT 3SM -SHRA BR BKN006 OVC012
     FM191400 19010KT 6SM -SHRA BKN010 OVC025 PROB30 1914/1918 3SM
      TSRA BKN010CB OVC012=



000
FTUS42 KFFC 181126
TAFFTY
TAF
KFTY 181126Z 1812/1912 05004KT 6SM BR OVC005
      TEMPO 1812/1814 4SM -DZ BR
     FM181400 07005KT P6SM BKN008 OVC015
     FM181800 11006KT P6SM VCSH BKN025
     FM190300 12004KT P6SM -RA BKN015
     FM190600 13006KT 3SM -SHRA BR BKN006 OVC012=



000
FTUS42 KFFC 181126
TAFPDK
TAF
KPDK 181126Z 1812/1912 VRB03KT 4SM -DZ BR OVC004
     FM181400 07005KT P6SM BKN008 OVC012
     FM181800 11006KT P6SM VCSH BKN025
     FM190300 12004KT P6SM -RA BKN015
     FM190600 13006KT 3SM -SHRA BR BKN006 OVC012=



000
FTUS42 KFFC 181126
TAFFTY
TAF
KFTY 181126Z 1812/1912 05004KT 6SM BR OVC005
      TEMPO 1812/1814 4SM -DZ BR
     FM181400 07005KT P6SM BKN008 OVC015
     FM181800 11006KT P6SM VCSH BKN025
     FM190300 12004KT P6SM -RA BKN015
     FM190600 13006KT 3SM -SHRA BR BKN006 OVC012=



000
FTUS42 KFFC 181126
TAFATL
TAF
KATL 181126Z 1812/1918 06006KT 4SM -DZ BR OVC003
     FM181400 07006KT P6SM BKN008 OVC014
     FM181800 11008KT P6SM VCSH BKN025
     FM190300 12006KT P6SM -RA BKN015
     FM190600 13006KT 3SM -SHRA BR BKN006 OVC012
     FM191400 19010KT 6SM -SHRA BKN010 OVC025 PROB30 1914/1918 3SM
      TSRA BKN010CB OVC012=



000
FTUS42 KFFC 180935 AAB
TAFATL
TAF AMD
KATL 180935Z 1810/1912 06006KT 4SM -DZ BR BKN003 OVC014
     FM181400 07006KT P6SM BKN008
     FM181800 11008KT P6SM BKN025 PROB30 1821/1824 4SM TSRA SCT025CB
      BKN035
     FM190300 12006KT P6SM -RA BKN015
     FM190600 13006KT 3SM -SHRA BR BKN006 OVC012=



000
FTUS42 KFFC 180935 AAB
TAFPDK
TAF AMD
KPDK 180935Z 1810/1906 VRB03KT 4SM -DZ BR BKN004 OVC012
     FM181400 07005KT P6SM BKN008
     FM181800 11006KT P6SM BKN025 PROB30 1821/1824 4SM TSRA SCT025CB
      BKN035
     FM190300 12004KT P6SM -RA BKN015=



000
FTUS42 KFFC 180935 AAB
TAFFTY
TAF AMD
KFTY 180935Z 1810/1906 05004KT 4SM -DZ BR BKN005 OVC015
     FM181400 07005KT P6SM BKN008
     FM181800 11006KT P6SM BKN025 PROB30 1821/1824 4SM TSRA SCT025CB
      BKN035
     FM190300 12004KT P6SM -RA BKN015=



000
FTUS42 KFFC 180935 AAB
TAFFTY
TAF AMD
KFTY 180935Z 1810/1906 05004KT 4SM -DZ BR BKN005 OVC015
     FM181400 07005KT P6SM BKN008
     FM181800 11006KT P6SM BKN025 PROB30 1821/1824 4SM TSRA SCT025CB
      BKN035
     FM190300 12004KT P6SM -RA BKN015=



000
FTUS42 KFFC 180935 AAB
TAFPDK
TAF AMD
KPDK 180935Z 1810/1906 VRB03KT 4SM -DZ BR BKN004 OVC012
     FM181400 07005KT P6SM BKN008
     FM181800 11006KT P6SM BKN025 PROB30 1821/1824 4SM TSRA SCT025CB
      BKN035
     FM190300 12004KT P6SM -RA BKN015=



000
FTUS42 KFFC 180935 AAB
TAFATL
TAF AMD
KATL 180935Z 1810/1912 06006KT 4SM -DZ BR BKN003 OVC014
     FM181400 07006KT P6SM BKN008
     FM181800 11008KT P6SM BKN025 PROB30 1821/1824 4SM TSRA SCT025CB
      BKN035
     FM190300 12006KT P6SM -RA BKN015
     FM190600 13006KT 3SM -SHRA BR BKN006 OVC012=



000
FTUS42 KFFC 180826 AAA
TAFATL
TAF AMD
KATL 180826Z 1808/1912 05006KT 4SM -DZ BR BKN004 OVC014
     FM181400 07006KT P6SM BKN008
     FM181800 11008KT P6SM BKN025 PROB30 1821/1824 4SM TSRA SCT025CB
      BKN035
     FM190300 12006KT P6SM -RA BKN015
     FM190600 13006KT 3SM -SHRA BR BKN006 OVC012=



000
FTUS42 KFFC 180826 AAA
TAFFTY
TAF AMD
KFTY 180826Z 1808/1906 VRB03KT 3SM -DZ BR BKN004 OVC015
     FM181400 07005KT P6SM BKN008
     FM181800 11006KT P6SM BKN025 PROB30 1821/1824 4SM TSRA SCT025CB
      BKN035
     FM190300 12004KT P6SM -RA BKN015=



000
FTUS42 KFFC 180826 AAA
TAFCSG
TAF AMD
KCSG 180826Z 1808/1906 VRB03KT 4SM -DZ BR BKN003 OVC012
     FM181400 07005KT P6SM BKN009
     FM181700 11006KT P6SM BKN025 PROB30 1820/1824 4SM TSRA SCT025CB
      BKN035
     FM190100 12004KT 6SM -RA BKN015=



000
FTUS42 KFFC 180826 AAA
TAFAHN
TAF AMD
KAHN 180826Z 1808/1906 VRB03KT 3SM -DZ BR BKN004 OVC018
     FM181400 07005KT P6SM BKN008
     FM181800 11006KT P6SM BKN025 PROB30 1821/1824 4SM TSRA SCT025CB
      BKN035
     FM190500 12004KT P6SM -RA BKN015=



000
FTUS42 KFFC 180826 AAA
TAFPDK
TAF AMD
KPDK 180826Z 1808/1906 VRB03KT 5SM -DZ BR BKN003 OVC012
     FM181400 07005KT P6SM BKN008
     FM181800 11006KT P6SM BKN025 PROB30 1821/1824 4SM TSRA SCT025CB
      BKN035
     FM190300 12004KT P6SM -RA BKN015=



000
FTUS42 KFFC 180826 AAA
TAFMCN
TAF AMD
KMCN 180826Z 1808/1906 04004KT 3SM -DZ BR BKN006 OVC018
     FM181400 07005KT P6SM BKN008
     FM181800 16006KT P6SM BKN025 PROB30 1821/1824 4SM TSRA SCT025CB
      BKN035
     FM190400 11004KT P6SM -RA BKN015=



000
FTUS42 KFFC 180826 AAA
TAFCSG
TAF AMD
KCSG 180826Z 1808/1906 VRB03KT 4SM -DZ BR BKN003 OVC012
     FM181400 07005KT P6SM BKN009
     FM181700 11006KT P6SM BKN025 PROB30 1820/1824 4SM TSRA SCT025CB
      BKN035
     FM190100 12004KT 6SM -RA BKN015=



000
FTUS42 KFFC 180826 AAA
TAFAHN
TAF AMD
KAHN 180826Z 1808/1906 VRB03KT 3SM -DZ BR BKN004 OVC018
     FM181400 07005KT P6SM BKN008
     FM181800 11006KT P6SM BKN025 PROB30 1821/1824 4SM TSRA SCT025CB
      BKN035
     FM190500 12004KT P6SM -RA BKN015=



000
FTUS42 KFFC 180826 AAA
TAFFTY
TAF AMD
KFTY 180826Z 1808/1906 VRB03KT 3SM -DZ BR BKN004 OVC015
     FM181400 07005KT P6SM BKN008
     FM181800 11006KT P6SM BKN025 PROB30 1821/1824 4SM TSRA SCT025CB
      BKN035
     FM190300 12004KT P6SM -RA BKN015=



000
FTUS42 KFFC 180826 AAA
TAFPDK
TAF AMD
KPDK 180826Z 1808/1906 VRB03KT 5SM -DZ BR BKN003 OVC012
     FM181400 07005KT P6SM BKN008
     FM181800 11006KT P6SM BKN025 PROB30 1821/1824 4SM TSRA SCT025CB
      BKN035
     FM190300 12004KT P6SM -RA BKN015=



000
FTUS42 KFFC 180826 AAA
TAFATL
TAF AMD
KATL 180826Z 1808/1912 05006KT 4SM -DZ BR BKN004 OVC014
     FM181400 07006KT P6SM BKN008
     FM181800 11008KT P6SM BKN025 PROB30 1821/1824 4SM TSRA SCT025CB
      BKN035
     FM190300 12006KT P6SM -RA BKN015
     FM190600 13006KT 3SM -SHRA BR BKN006 OVC012=



000
FTUS42 KFFC 180826 AAA
TAFMCN
TAF AMD
KMCN 180826Z 1808/1906 04004KT 3SM -DZ BR BKN006 OVC018
     FM181400 07005KT P6SM BKN008
     FM181800 16006KT P6SM BKN025 PROB30 1821/1824 4SM TSRA SCT025CB
      BKN035
     FM190400 11004KT P6SM -RA BKN015=



000
FTUS42 KFFC 180520
TAFRYY
TAF
KRYY 180520Z 1806/1906 06004KT 6SM -RA BKN004 OVC020
     FM180900 03004KT 3SM -DZ BR OVC004
     FM181400 07007KT P6SM BKN008
     FM181800 11007KT P6SM BKN025 PROB30 1821/1824 4SM TSRA SCT025CB
      BKN035
     FM190300 12004KT P6SM -RA BKN015
      AMD NOT SKED TIL 181200=



000
FTUS42 KFFC 180520
TAFAHN
TAF
KAHN 180520Z 1806/1906 07004KT 6SM -RA BKN004 OVC014
     FM180900 VRB03KT 2SM -DZ BR OVC003
     FM181400 07005KT P6SM BKN008
     FM181800 11006KT P6SM BKN025 PROB30 1821/1824 4SM TSRA SCT025CB
      BKN035
     FM190500 12004KT P6SM -RA BKN015=



000
FTUS42 KFFC 180520
TAFMCN
TAF
KMCN 180520Z 1806/1906 02004KT 6SM -RA BKN004 OVC025
     FM180900 VRB03KT 2SM -DZ BR OVC003
     FM181400 07005KT P6SM BKN008
     FM181800 16006KT P6SM BKN025 PROB30 1821/1824 4SM TSRA SCT025CB
      BKN035
     FM190400 11004KT P6SM -RA BKN015=



000
FTUS42 KFFC 180520
TAFFTY
TAF
KFTY 180520Z 1806/1906 VRB03KT 3SM -RA BR BKN007 OVC020
     FM180900 VRB03KT 2SM -DZ BR OVC004
     FM181400 07005KT P6SM BKN008
     FM181800 11006KT P6SM BKN025 PROB30 1821/1824 4SM TSRA SCT025CB
      BKN035
     FM190300 12004KT P6SM -RA BKN015=



000
FTUS42 KFFC 180520
TAFPDK
TAF
KPDK 180520Z 1806/1906 VRB03KT 5SM -RA BR BKN004 OVC020
     FM180900 VRB03KT 2SM -DZ BR OVC003
     FM181400 07005KT P6SM BKN008
     FM181800 11006KT P6SM BKN025 PROB30 1821/1824 4SM TSRA SCT025CB
      BKN035
     FM190300 12004KT P6SM -RA BKN015=



000
FTUS42 KFFC 180520
TAFATL
TAF
KATL 180520Z 1806/1912 07007KT 3SM -RA BR BKN005 OVC020
     FM180800 05005KT 2SM -DZ BR OVC003
     FM181400 07006KT P6SM BKN008
     FM181800 11008KT P6SM BKN025 PROB30 1821/1824 4SM TSRA SCT025CB
      BKN035
     FM190300 12006KT P6SM -RA BKN015
     FM190600 13006KT 3SM -SHRA BR BKN006 OVC012=



000
FTUS42 KFFC 180520
TAFCSG
TAF
KCSG 180520Z 1806/1906 VRB03KT P6SM BKN007 OVC025
     FM180900 VRB03KT 4SM BR OVC004
     FM181400 07005KT P6SM BKN009
     FM181700 11006KT P6SM BKN025 PROB30 1820/1824 4SM TSRA SCT025CB
      BKN035
     FM190100 12004KT 6SM -RA BKN015=



000
FTUS42 KFFC 180343 AAB
TAFATL
TAF AMD
KATL 180343Z 1804/1906 07005KT 4SM -RA BR BKN005 BKN025
     FM180700 04003KT 2SM -DZ BR OVC002
     FM181500 09006KT P6SM BKN008
     FM181800 11007KT P6SM BKN025 PROB30 1821/1824 4SM TSRA BKN025CB
     FM190300 12006KT P6SM -RA BKN025=



000
FTUS42 KFFC 180209 AAA
TAFFTY
TAF AMD
KFTY 180209Z 1802/1824 VRB03KT P6SM -SHRA OVC006
     FM180400 06003KT 4SM -RA BR BKN004
     FM180700 00000KT 2SM -DZ BR OVC002
     FM181500 09004KT P6SM BKN008
     FM181800 11005KT P6SM BKN025=



000
FTUS42 KFFC 180209 AAA
TAFRYY
TAF AMD
KRYY 180209Z 1802/1824 00000KT 5SM BR BKN005
     FM180700 00000KT 2SM -DZ BR OVC002
     FM181500 09004KT P6SM BKN008
     FM181800 11005KT P6SM BKN025
      AMD NOT SKED 1804/1812=



000
FTUS42 KFFC 180209 AAB
TAFCSG
TAF AMD
KCSG 180209Z 1802/1824 10005KT 6SM -SHRA SCT005 BKN040
     FM180400 08003KT 4SM -SHRA BR OVC006
     FM180600 00000KT 2SM -DZ BR BKN004
     FM181500 09004KT 6SM BR BKN007
     FM181700 12005KT P6SM BKN022=



000
FTUS42 KFFC 180209 AAA
TAFMCN
TAF AMD
KMCN 180209Z 1802/1824 08004KT 6SM -SHRA FEW003 BKN040
     FM180400 00000KT 4SM -SHRA OVC007
     FM180600 00000KT 2SM -SHRA BR BKN002
     FM181500 09003KT 6SM BR BKN007
     FM181700 10004KT P6SM BKN017=



000
FTUS42 KFFC 180209 AAB
TAFPDK
TAF AMD
KPDK 180209Z 1802/1824 06003KT 4SM -RA BR BKN004
     FM180700 00000KT 2SM -DZ BR OVC002
     FM181500 09004KT P6SM BKN008
     FM181800 11005KT P6SM BKN025=



000
FTUS42 KFFC 180209 AAB
TAFAHN
TAF AMD
KAHN 180209Z 1802/1824 VRB03KT 4SM -SHRA SCT004 SCT015 BKN035
     FM180400 00000KT 2SM -RA BR OVC004
     FM181400 07003KT 4SM BR OVC008
     FM181700 09005KT P6SM BKN022=



000
FTUS42 KFFC 180204 AAA
TAFATL
TAF AMD
KATL 180204Z 1802/1906 06004KT 4SM -RA BR BKN005 BKN025
     FM180700 04003KT 2SM -DZ BR OVC002
     FM181500 09006KT P6SM BKN008
     FM181800 11007KT P6SM BKN025 PROB30 1821/1824 4SM TSRA BKN025CB
     FM190300 12006KT P6SM -RA BKN025=



000
FTUS42 KFFC 172358 AAA
TAFPDK
TAF AMD
KPDK 172358Z 1800/1824 02003KT 4SM -SHRA BR FEW007 BKN025
      TEMPO 1800/1802 2SM BR OVC007
     FM180200 06003KT 4SM -RA BR BKN004
     FM180700 00000KT 2SM -DZ BR OVC002
     FM181500 09004KT P6SM BKN008
     FM181800 11005KT P6SM BKN025=



000
FTUS42 KFFC 172358 AAA
TAFPDK
TAF AMD
KPDK 172358Z 1800/1824 02003KT 4SM -SHRA BR FEW007 BKN025
      TEMPO 1800/1802 2SM BR OVC007
     FM180200 06003KT 4SM -RA BR BKN004
     FM180700 00000KT 2SM -DZ BR OVC002
     FM181500 09004KT P6SM BKN008
     FM181800 11005KT P6SM BKN025=



000
FTUS42 KFFC 172357 AAA
TAFAHN
TAF AMD
KAHN 172357Z 1800/1824 VRB03KT 4SM -SHRA SCT004 SCT015 BKN025
     FM180200 00000KT 2SM -RA BR OVC004
     FM181400 07003KT 4SM BR OVC008
     FM181700 09005KT P6SM BKN022=



000
FTUS42 KFFC 172357 AAA
TAFAHN
TAF AMD
KAHN 172357Z 1800/1824 VRB03KT 4SM -SHRA SCT004 SCT015 BKN025
     FM180200 00000KT 2SM -RA BR OVC004
     FM181400 07003KT 4SM BR OVC008
     FM181700 09005KT P6SM BKN022=



000
FTUS42 KFFC 172356 AAA
TAFCSG
TAF AMD
KCSG 172356Z 1800/1824 08005KT 5SM -SHRA SCT006 SCT025 BKN040
      TEMPO 1800/1802 3SM SHRA BR
     FM180200 08003KT 4SM -SHRA BR OVC006
     FM180500 00000KT 2SM -DZ BR BKN004
     FM181500 09004KT 6SM BR BKN007
     FM181700 12005KT P6SM BKN022=



000
FTUS42 KFFC 172334
TAFAHN
TAF
KAHN 172334Z 1800/1824 VRB03KT 4SM -SHRA SCT004 BKN035
      TEMPO 1800/1802 2SM SHRA OVC004
     FM180200 00000KT 2SM -RA BR OVC004
     FM181400 07003KT 4SM BR OVC008
     FM181700 09005KT P6SM BKN022=



000
FTUS42 KFFC 172334
TAFFTY
TAF
KFTY 172334Z 1800/1824 VRB03KT 2SM -SHRA BR OVC006
      TEMPO 1800/1802 5SM -SHRA BR SCT006 OVC020
     FM180200 06003KT 4SM -RA BR BKN004
     FM180700 00000KT 2SM -DZ BR OVC002
     FM181500 09004KT P6SM BKN008
     FM181800 11005KT P6SM BKN025=



000
FTUS42 KFFC 172334
TAFMCN
TAF
KMCN 172334Z 1800/1824 08004KT 6SM -SHRA OVC005
     FM180100 00000KT 4SM -SHRA OVC007
     FM180400 00000KT 2SM -SHRA BR BKN002
     FM181500 09003KT 6SM BR BKN007
     FM181700 10004KT P6SM BKN017=



000
FTUS42 KFFC 172334
TAFPDK
TAF
KPDK 172334Z 1800/1824 02003KT 4SM -SHRA BR OVC004
      TEMPO 1800/1802 2SM BR
     FM180200 06003KT 4SM -RA BR BKN004
     FM180700 00000KT 2SM -DZ BR OVC002
     FM181500 09004KT P6SM BKN008
     FM181800 11005KT P6SM BKN025=



000
FTUS42 KFFC 172334
TAFCSG
TAF
KCSG 172334Z 1800/1824 08005KT 4SM -SHRA OVC006
      TEMPO 1800/1802 2SM SHRA BR
     FM180200 08003KT 4SM -SHRA BR OVC006
     FM180500 00000KT 2SM -DZ BR BKN004
     FM181500 09004KT 6SM BR BKN007
     FM181700 12005KT P6SM BKN022=



000
FTUS42 KFFC 172334
TAFRYY
TAF
KRYY 172334Z 1800/1824 VRB03KT 4SM -SHRA BR OVC004
      TEMPO 1800/1802 1SM BR
     FM180200 00000KT 3SM -RA BR BKN004
     FM180700 00000KT 2SM -DZ BR OVC002
     FM181500 09004KT P6SM BKN008
     FM181800 11005KT P6SM BKN025
      AMD NOT SKED 1804/1812=



000
FTUS42 KFFC 172334
TAFAHN
TAF
KAHN 172334Z 1800/1824 VRB03KT 4SM -SHRA SCT004 BKN035
      TEMPO 1800/1802 2SM SHRA OVC004
     FM180200 00000KT 2SM -RA BR OVC004
     FM181400 07003KT 4SM BR OVC008
     FM181700 09005KT P6SM BKN022=



000
FTUS42 KFFC 172334
TAFFTY
TAF
KFTY 172334Z 1800/1824 VRB03KT 2SM -SHRA BR OVC006
      TEMPO 1800/1802 5SM -SHRA BR SCT006 OVC020
     FM180200 06003KT 4SM -RA BR BKN004
     FM180700 00000KT 2SM -DZ BR OVC002
     FM181500 09004KT P6SM BKN008
     FM181800 11005KT P6SM BKN025=



000
FTUS42 KFFC 172334
TAFPDK
TAF
KPDK 172334Z 1800/1824 02003KT 4SM -SHRA BR OVC004
      TEMPO 1800/1802 2SM BR
     FM180200 06003KT 4SM -RA BR BKN004
     FM180700 00000KT 2SM -DZ BR OVC002
     FM181500 09004KT P6SM BKN008
     FM181800 11005KT P6SM BKN025=



000
FTUS42 KFFC 172334
TAFATL
TAF
KATL 172334Z 1800/1906 08005KT 4SM -SHRA BR SCT004 BKN010 OVC030
      TEMPO 1800/1802 2SM BR BKN004
     FM180200 06004KT 4SM -RA BR BKN004
     FM180700 04003KT 2SM -DZ BR OVC002
     FM181500 09006KT P6SM BKN008
     FM181800 11007KT P6SM BKN025 PROB30 1821/1824 4SM TSRA BKN025CB
     FM190300 12006KT P6SM -RA BKN025=



000
FTUS42 KFFC 172334
TAFMCN
TAF
KMCN 172334Z 1800/1824 08004KT 6SM -SHRA OVC005
     FM180100 00000KT 4SM -SHRA OVC007
     FM180400 00000KT 2SM -SHRA BR BKN002
     FM181500 09003KT 6SM BR BKN007
     FM181700 10004KT P6SM BKN017=



000
FTUS42 KFFC 172334
TAFCSG
TAF
KCSG 172334Z 1800/1824 08005KT 4SM -SHRA OVC006
      TEMPO 1800/1802 2SM SHRA BR
     FM180200 08003KT 4SM -SHRA BR OVC006
     FM180500 00000KT 2SM -DZ BR BKN004
     FM181500 09004KT 6SM BR BKN007
     FM181700 12005KT P6SM BKN022=



000
FTUS42 KFFC 172334
TAFRYY
TAF
KRYY 172334Z 1800/1824 VRB03KT 4SM -SHRA BR OVC004
      TEMPO 1800/1802 1SM BR
     FM180200 00000KT 3SM -RA BR BKN004
     FM180700 00000KT 2SM -DZ BR OVC002
     FM181500 09004KT P6SM BKN008
     FM181800 11005KT P6SM BKN025
      AMD NOT SKED 1804/1812=



000
FTUS42 KFFC 172334
TAFATL
TAF
KATL 172334Z 1800/1906 08005KT 4SM -SHRA BR SCT004 BKN010 OVC030
      TEMPO 1800/1802 2SM BR BKN004
     FM180200 06004KT 4SM -RA BR BKN004
     FM180700 04003KT 2SM -DZ BR OVC002
     FM181500 09006KT P6SM BKN008
     FM181800 11007KT P6SM BKN025 PROB30 1821/1824 4SM TSRA BKN025CB
     FM190300 12006KT P6SM -RA BKN025=



000
FTUS42 KFFC 172307 AAA
TAFRYY
TAF AMD
KRYY 172307Z 1723/1818 10004KT 4SM -SHRA BR OVC005
      TEMPO 1723/1801 1SM BR
     FM180100 06003KT 4SM -RA BR BKN004
     FM180700 00000KT 2SM -DZ BR OVC002
     FM181500 09004KT P6SM BKN008=



000
FTUS42 KFFC 172307 AAA
TAFRYY
TAF AMD
KRYY 172307Z 1723/1818 10004KT 4SM -SHRA BR OVC005
      TEMPO 1723/1801 1SM BR
     FM180100 06003KT 4SM -RA BR BKN004
     FM180700 00000KT 2SM -DZ BR OVC002
     FM181500 09004KT P6SM BKN008=



000
FTUS42 KFFC 172306 AAA
TAFPDK
TAF AMD
KPDK 172306Z 1723/1818 02003KT 5SM -SHRA BR OVC005
      TEMPO 1723/1801 2SM BR
     FM180100 06003KT 4SM -RA BR BKN004
     FM180700 00000KT 2SM -DZ BR OVC002
     FM181500 09004KT P6SM BKN008=



000
FTUS42 KFFC 172306 AAA
TAFPDK
TAF AMD
KPDK 172306Z 1723/1818 02003KT 5SM -SHRA BR OVC005
      TEMPO 1723/1801 2SM BR
     FM180100 06003KT 4SM -RA BR BKN004
     FM180700 00000KT 2SM -DZ BR OVC002
     FM181500 09004KT P6SM BKN008=



000
FTUS42 KFFC 172259 AAB
TAFFTY
TAF AMD
KFTY 172259Z 1723/1818 VRB03KT 2SM -SHRA BR OVC005
      TEMPO 1723/1801 5SM -SHRA BR SCT005 OVC020
     FM180100 06003KT 4SM -RA BR BKN004
     FM180700 00000KT 2SM -DZ BR OVC002
     FM181500 09004KT P6SM BKN008=



000
FTUS42 KFFC 172259 AAA
TAFAHN
TAF AMD
KAHN 172259Z 1723/1818 VRB03KT 4SM -SHRA SCT006 BKN030
      TEMPO 1723/1801 2SM SHRA OVC006
     FM180100 00000KT 2SM -RA BR OVC004
     FM181400 07003KT 4SM BR OVC008
     FM181700 09005KT P6SM BKN022=



000
FTUS42 KFFC 172257 AAA
TAFCSG
TAF AMD
KCSG 172257Z 1723/1818 08006KT 4SM -SHRA OVC006
      TEMPO 1723/1801 2SM SHRA BR
     FM180100 08003KT 4SM -SHRA BR OVC006
     FM180500 00000KT 2SM -DZ BR BKN004
     FM181500 09004KT 6SM BR BKN007
     FM181700 12005KT P6SM BKN022=



000
FTUS42 KFFC 172215 AAA
TAFFTY
TAF AMD
KFTY 172215Z 1722/1818 VRB03KT 6SM -SHRA BR OVC005
      TEMPO 1722/1724 2SM -SHRA BR
     FM180100 06003KT 4SM -RA BR BKN004
     FM180700 00000KT 2SM -DZ BR OVC002
     FM181500 09004KT P6SM BKN008=



000
FTUS42 KFFC 172214 AAD
TAFATL
TAF AMD
KATL 172214Z 1722/1824 08007KT 4SM -SHRA BR BKN006 OVC010
      TEMPO 1722/1724 2SM BR
     FM180100 06004KT 4SM -RA BR BKN004
     FM180700 04003KT 2SM -DZ BR OVC002
     FM181500 09006KT P6SM BKN008
     FM181800 11007KT P6SM BKN025=



000
FTUS42 KFFC 172146 AAC
TAFATL
TAF AMD
KATL 172146Z 1722/1824 08007KT 4SM -SHRA BR BKN006 OVC010
     FM180100 06004KT 4SM -RA BR BKN004
     FM180700 04003KT 2SM -DZ BR OVC002
     FM181500 09006KT P6SM BKN008
     FM181800 11007KT P6SM BKN025=



000
FTUS42 KFFC 171957 AAB
TAFATL
TAF AMD
KATL 171957Z 1720/1824 09007KT 4SM -SHRA BR BKN006 OVC010
     FM180100 06004KT 4SM -RA BR BKN004
     FM180700 04003KT 2SM -DZ BR OVC002
     FM181500 09006KT P6SM BKN008
     FM181800 11007KT P6SM BKN025=



000
FTUS42 KFFC 171957 AAB
TAFATL
TAF AMD
KATL 171957Z 1720/1824 09007KT 4SM -SHRA BR BKN006 OVC010
     FM180100 06004KT 4SM -RA BR BKN004
     FM180700 04003KT 2SM -DZ BR OVC002
     FM181500 09006KT P6SM BKN008
     FM181800 11007KT P6SM BKN025=



000
FTUS42 KFFC 171901 AAA
TAFATL
TAF AMD
KATL 171901Z 1719/1824 09007KT 6SM -SHRA BR BKN006 OVC010
      TEMPO 1719/1722 3SM -SHRA BR
     FM180100 06004KT 4SM -RA BR BKN004
     FM180700 04003KT 2SM -DZ BR OVC002
     FM181500 09006KT P6SM BKN008
     FM181800 11007KT P6SM BKN025=



000
FTUS42 KFFC 171738
TAFFTY
TAF
KFTY 171738Z 1718/1818 09005KT 6SM -SHRA BR OVC008
      TEMPO 1718/1722 5SM -SHRA BR
     FM180100 06003KT 4SM -RA BR BKN004
     FM180700 00000KT 2SM -DZ BR OVC002
     FM181500 09004KT P6SM BKN008=



000
FTUS42 KFFC 171738
TAFPDK
TAF
KPDK 171738Z 1718/1818 09004KT 5SM -SHRA BR OVC005
     FM180100 06003KT 4SM -RA BR BKN004
     FM180700 00000KT 2SM -DZ BR OVC002
     FM181500 09004KT P6SM BKN008=



000
FTUS42 KFFC 171738
TAFATL
TAF
KATL 171738Z 1718/1824 09007KT 6SM -SHRA BR BKN006 OVC010
     FM180100 06004KT 4SM -RA BR BKN004
     FM180700 04003KT 2SM -DZ BR OVC002
     FM181500 09006KT P6SM BKN008
     FM181800 11007KT P6SM BKN025=



000
FTUS42 KFFC 171738
TAFCSG
TAF
KCSG 171738Z 1718/1818 10006KT 6SM -SHRA OVC008
      TEMPO 1718/1722 4SM SHRA BR
     FM180000 08003KT 4SM -SHRA BR OVC007
     FM180500 00000KT 2SM -DZ BR BKN004
     FM181500 09004KT 6SM BR BKN007
     FM181700 12005KT P6SM BKN022=



000
FTUS42 KFFC 171738
TAFRYY
TAF
KRYY 171738Z 1718/1818 10004KT 4SM -SHRA BR OVC005
     FM180100 06003KT 4SM -RA BR BKN004
     FM180700 00000KT 2SM -DZ BR OVC002
     FM181500 09004KT P6SM BKN008=



000
FTUS42 KFFC 171738
TAFMCN
TAF
KMCN 171738Z 1718/1818 05004KT 6SM -SHRA OVC005
     FM180100 00000KT 4SM -SHRA OVC007
     FM180400 00000KT 2SM -SHRA BR BKN002
     FM181500 09003KT 6SM BR BKN007
     FM181700 10004KT P6SM BKN017=



000
FTUS42 KFFC 171738
TAFAHN
TAF
KAHN 171738Z 1718/1818 10004KT P6SM VCSH OVC005
     FM171900 11004KT 6SM -SHRA OVC006
     FM172100 15003KT 4SM -SHRA OVC006
     FM180000 00000KT 2SM -RA BR OVC004
     FM181400 07003KT 4SM BR OVC008
     FM181700 09005KT P6SM BKN022=



000
FTUS42 KFFC 171624 AAB
TAFCSG
TAF AMD
KCSG 171624Z 1716/1812 10003KT 4SM -SHRA BR OVC007
     FM172200 VRB03KT P6SM VCSH OVC007
     FM180500 00000KT 5SM BR BKN005=



000
FTUS42 KFFC 171623 AAC
TAFMCN
TAF AMD
KMCN 171623Z 1716/1812 05004KT 6SM SHRA BR OVC005
     FM172200 VRB03KT P6SM VCSH OVC007
     FM180500 00000KT 3SM BR BKN005=



000
FTUS42 KFFC 171547 AAA
TAFRYY
TAF AMD
KRYY 171547Z 1716/1812 10005KT 4SM -SHRA BR OVC004
      TEMPO 1716/1718 2SM -SHRA BR
     FM180100 04003KT 4SM BR BKN004
     FM180700 05003KT 2SM BR OVC003=



000
FTUS42 KFFC 171546 AAB
TAFPDK
TAF AMD
KPDK 171546Z 1716/1812 07005KT 4SM -SHRA BR BKN005 OVC015
      TEMPO 1716/1718 3SM -SHRA BR OVC004
     FM180100 04003KT 4SM BR BKN004
     FM180700 05003KT 2SM BR OVC003=



000
FTUS42 KFFC 171546 AAB
TAFPDK
TAF AMD
KPDK 171546Z 1716/1812 07005KT 4SM -SHRA BR BKN005 OVC015
      TEMPO 1716/1718 3SM -SHRA BR OVC004
     FM180100 04003KT 4SM BR BKN004
     FM180700 05003KT 2SM BR OVC003=



000
FTUS42 KFFC 171545 AAB
TAFFTY
TAF AMD
KFTY 171545Z 1716/1812 07005KT 4SM -SHRA BR BKN006 OVC015
     FM180100 04003KT 4SM BR BKN004
     FM180700 05003KT 2SM BR OVC003=



000
FTUS42 KFFC 171545 AAB
TAFFTY
TAF AMD
KFTY 171545Z 1716/1812 07005KT 4SM -SHRA BR BKN006 OVC015
     FM180100 04003KT 4SM BR BKN004
     FM180700 05003KT 2SM BR OVC003=



000
FTUS42 KFFC 171543 AAB
TAFATL
TAF AMD
KATL 171543Z 1716/1818 07007KT 4SM -SHRA BR BKN006 OVC015
     FM180100 04003KT 4SM BR BKN004
     FM180700 05003KT 2SM BR OVC003
     FM181500 07006KT P6SM BKN012=



000
FTUS42 KFFC 171407 AAA
TAFAHN
TAF AMD
KAHN 171407Z 1714/1812 06004KT 3SM BR OVC004
     FM171500 10004KT P6SM OVC006
     FM171800 VRB03KT P6SM VCSH BKN016 OVC028
     FM172000 VRB03KT P6SM VCSH SCT024 BKN040
     FM180300 00000KT P6SM BKN009
     FM180600 00000KT 4SM BR OVC005=



000
FTUS42 KFFC 171405 AAB
TAFMCN
TAF AMD
KMCN 171405Z 1714/1812 05004KT 2SM SHRA BR OVC004
     FM171600 06003KT P6SM BKN012 OVC030
      TEMPO 1718/1722 VRB12KT 4SM SHRA SCT012 OVC035
     FM172200 VRB03KT P6SM VCSH SCT025 BKN040
     FM180500 00000KT P6SM BKN009=



000
FTUS42 KFFC 171405 AAB
TAFMCN
TAF AMD
KMCN 171405Z 1714/1812 05004KT 2SM SHRA BR OVC004
     FM171600 06003KT P6SM BKN012 OVC030
      TEMPO 1718/1722 VRB12KT 4SM SHRA SCT012 OVC035
     FM172200 VRB03KT P6SM VCSH SCT025 BKN040
     FM180500 00000KT P6SM BKN009=



000
FTUS42 KFFC 171348 AAA
TAFATL
TAF AMD
KATL 171348Z 1714/1818 08006KT 5SM -SHRA BR OVC004
     FM171600 06005KT 5SM BR VCSH OVC008
     FM171800 06004KT P6SM VCSH OVC012
      TEMPO 1720/1724 VRB12KT 4SM -SHRA
     FM180300 04003KT P6SM BKN009
     FM180700 05003KT 4SM BR OVC004
     FM181500 07006KT P6SM BKN012=



000
FTUS42 KFFC 171348 AAA
TAFATL
TAF AMD
KATL 171348Z 1714/1818 08006KT 5SM -SHRA BR OVC004
     FM171600 06005KT 5SM BR VCSH OVC008
     FM171800 06004KT P6SM VCSH OVC012
      TEMPO 1720/1724 VRB12KT 4SM -SHRA
     FM180300 04003KT P6SM BKN009
     FM180700 05003KT 4SM BR OVC004
     FM181500 07006KT P6SM BKN012=



000
FTUS42 KFFC 171310 AAA
TAFMCN
TAF AMD
KMCN 171310Z 1713/1812 05004KT 2SM BR OVC005
     FM171400 06003KT 6SM BR OVC009
     FM171600 06003KT P6SM BKN012 OVC030
      TEMPO 1718/1722 VRB12KT 4SM SHRA SCT012 OVC035
     FM172200 VRB03KT P6SM VCSH SCT025 BKN040
     FM180500 00000KT P6SM BKN009=



000
FTUS42 KFFC 171310 AAA
TAFMCN
TAF AMD
KMCN 171310Z 1713/1812 05004KT 2SM BR OVC005
     FM171400 06003KT 6SM BR OVC009
     FM171600 06003KT P6SM BKN012 OVC030
      TEMPO 1718/1722 VRB12KT 4SM SHRA SCT012 OVC035
     FM172200 VRB03KT P6SM VCSH SCT025 BKN040
     FM180500 00000KT P6SM BKN009=



000
FTUS42 KFFC 171305 AAA
TAFPDK
TAF AMD
KPDK 171305Z 1713/1812 06004KT 5SM -RA BR OVC005
     FM171600 05003KT 6SM BR VCSH OVC009
     FM171800 04003KT P6SM VCSH OVC012
      TEMPO 1720/1724 VRB12KT 4SM -SHRA
     FM180300 00000KT P6SM BKN009
     FM180700 05003KT 4SM BR OVC004=



000
FTUS42 KFFC 171304 AAA
TAFFTY
TAF AMD
KFTY 171304Z 1713/1812 06004KT 5SM -RA BR OVC005
     FM171600 04003KT 6SM BR VCSH OVC009
     FM171800 04003KT P6SM VCSH OVC012
      TEMPO 1720/1724 VRB12KT 4SM -SHRA
     FM180300 00000KT P6SM BKN009
     FM180700 05003KT 4SM BR OVC004=



000
FTUS42 KFFC 171238 AAA
TAFCSG
TAF AMD
KCSG 171238Z 1713/1812 09005KT 5SM -RA BR OVC003
     FM171400 12004KT 6SM BR OVC009
     FM171600 07003KT P6SM BKN012 OVC030
      TEMPO 1718/1722 VRB12KT 4SM SHRA SCT012 OVC035
     FM172200 VRB03KT P6SM VCSH SCT025 BKN040
     FM180500 00000KT P6SM BKN009=



000
FTUS42 KFFC 171238 AAA
TAFCSG
TAF AMD
KCSG 171238Z 1713/1812 09005KT 5SM -RA BR OVC003
     FM171400 12004KT 6SM BR OVC009
     FM171600 07003KT P6SM BKN012 OVC030
      TEMPO 1718/1722 VRB12KT 4SM SHRA SCT012 OVC035
     FM172200 VRB03KT P6SM VCSH SCT025 BKN040
     FM180500 00000KT P6SM BKN009=



000
FTUS42 KFFC 171121
TAFPDK
TAF
KPDK 171121Z 1712/1812 08004KT 1SM -RA BR OVC002
     FM171400 06004KT 4SM -DZ BR OVC005
     FM171600 05003KT 6SM BR VCSH OVC009
     FM171800 04003KT P6SM VCSH OVC012
      TEMPO 1720/1724 VRB12KT 4SM -SHRA
     FM180300 00000KT P6SM BKN009
     FM180700 05003KT 4SM BR OVC004=



000
FTUS42 KFFC 171121
TAFMCN
TAF
KMCN 171121Z 1712/1812 05004KT 3SM BR OVC003
     FM171400 06003KT 6SM BR OVC009
     FM171600 06003KT P6SM BKN012 OVC030
      TEMPO 1718/1722 VRB12KT 4SM SHRA SCT012 OVC035
     FM172200 VRB03KT P6SM VCSH SCT025 BKN040
     FM180500 00000KT P6SM BKN009=



000
FTUS42 KFFC 171121
TAFFTY
TAF
KFTY 171121Z 1712/1812 06005KT 1SM -RA BR OVC002
     FM171400 06004KT 4SM -DZ BR OVC005
     FM171600 04003KT 6SM BR VCSH OVC009
     FM171800 04003KT P6SM VCSH OVC012
      TEMPO 1720/1724 VRB12KT 4SM -SHRA
     FM180300 00000KT P6SM BKN009
     FM180700 05003KT 4SM BR OVC004=



000
FTUS42 KFFC 171121
TAFATL
TAF
KATL 171121Z 1712/1818 08007KT 1/2SM -RA FG OVC002
     FM171400 07006KT 3SM -DZ BR OVC004
     FM171600 06005KT 5SM BR VCSH OVC008
     FM171800 06004KT P6SM VCSH OVC012
      TEMPO 1720/1724 VRB12KT 4SM -SHRA
     FM180300 04003KT P6SM BKN009
     FM180700 05003KT 4SM BR OVC004
     FM181500 07006KT P6SM BKN012=



000
FTUS42 KFFC 171121
TAFRYY
TAF
KRYY 171121Z 1712/1812 06005KT 1SM -RA BR OVC002
     FM171400 06004KT 4SM -DZ BR OVC005
     FM171600 04003KT 6SM BR VCSH OVC010
     FM171800 04003KT P6SM VCSH OVC015
      TEMPO 1720/1724 VRB12KT 4SM -SHRA
     FM180300 00000KT P6SM BKN010
     FM180700 05003KT 4SM BR OVC004=



000
FTUS42 KFFC 171121
TAFCSG
TAF
KCSG 171121Z 1712/1812 09005KT 5SM BR OVC003
     FM171400 12004KT 6SM BR OVC009
     FM171600 07003KT P6SM BKN012 OVC030
      TEMPO 1718/1722 VRB12KT 4SM SHRA SCT012 OVC035
     FM172200 VRB03KT P6SM VCSH SCT025 BKN040
     FM180500 00000KT P6SM BKN009=



000
FTUS42 KFFC 171121
TAFAHN
TAF
KAHN 171121Z 1712/1812 06004KT 6SM BR OVC004
     FM171500 10004KT P6SM OVC009
     FM171800 VRB03KT P6SM VCSH BKN016 OVC028
     FM172000 VRB03KT P6SM VCSH SCT024 BKN040
     FM180300 00000KT P6SM BKN009
     FM180600 00000KT 4SM BR OVC005=



000
FTUS42 KFFC 170953 AAB
TAFFTY
TAF AMD
KFTY 170953Z 1710/1806 06004KT 3SM BR OVC002
     FM171400 08004KT 4SM BR OVC008
     FM171600 10004KT P6SM VCSH OVC012
     FM172000 VRB04KT P6SM VCSH BKN024 BKN040
     FM180300 VRB03KT P6SM BKN009=



000
FTUS42 KFFC 170953 AAB
TAFATL
TAF AMD
KATL 170953Z 1710/1812 08007KT 1/2SM -DZ FG OVC002
     FM171400 09006KT 3SM BR OVC008
     FM171600 10005KT P6SM VCSH OVC012
     FM172000 22004KT P6SM VCSH BKN024 BKN040
     FM180300 26003KT P6SM BKN009
     FM180700 29003KT 4SM BR OVC004=



000
FTUS42 KFFC 170953 AAB
TAFPDK
TAF AMD
KPDK 170953Z 1710/1806 08005KT 3SM BR OVC003
     FM171400 08004KT 4SM BR OVC008
     FM171600 10004KT P6SM VCSH OVC012
     FM172000 21004KT P6SM VCSH BKN024 BKN040
     FM180300 VRB03KT P6SM BKN009=



000
FTUS42 KFFC 170953 AAB
TAFFTY
TAF AMD
KFTY 170953Z 1710/1806 06004KT 3SM BR OVC002
     FM171400 08004KT 4SM BR OVC008
     FM171600 10004KT P6SM VCSH OVC012
     FM172000 VRB04KT P6SM VCSH BKN024 BKN040
     FM180300 VRB03KT P6SM BKN009=



000
FTUS42 KFFC 170953 AAB
TAFATL
TAF AMD
KATL 170953Z 1710/1812 08007KT 1/2SM -DZ FG OVC002
     FM171400 09006KT 3SM BR OVC008
     FM171600 10005KT P6SM VCSH OVC012
     FM172000 22004KT P6SM VCSH BKN024 BKN040
     FM180300 26003KT P6SM BKN009
     FM180700 29003KT 4SM BR OVC004=



000
FTUS42 KFFC 170953 AAB
TAFPDK
TAF AMD
KPDK 170953Z 1710/1806 08005KT 3SM BR OVC003
     FM171400 08004KT 4SM BR OVC008
     FM171600 10004KT P6SM VCSH OVC012
     FM172000 21004KT P6SM VCSH BKN024 BKN040
     FM180300 VRB03KT P6SM BKN009=



000
FTUS42 KFFC 170740 AAA
TAFATL
TAF AMD
KATL 170740Z 1708/1812 09007KT 1SM -DZ BR OVC002
     FM171400 09006KT 3SM BR OVC008
     FM171600 10005KT P6SM OVC012 PROB30 1717/1720 4SM SHRA SCT012
      BKN024
     FM172000 22004KT P6SM VCSH BKN024 BKN040
     FM180300 26003KT P6SM BKN009
     FM180700 29003KT 4SM BR OVC004=



000
FTUS42 KFFC 170620 AAA
TAFPDK
TAF AMD
KPDK 170620Z 1706/1806 09005KT 6SM BR OVC005
      TEMPO 1709/1713 2SM -RA BR OVC003
     FM171600 10004KT P6SM OVC012 PROB30 1716/1720 4SM SHRA SCT012
      BKN024
     FM172000 21004KT P6SM VCSH BKN024 BKN040
     FM180300 VRB03KT P6SM BKN009=



000
FTUS42 KFFC 170620 AAA
TAFAHN
TAF AMD
KAHN 170620Z 1706/1806 08006KT 4SM BR OVC005
      TEMPO 1706/1710 1SM -RA BR OVC003
     FM171600 10004KT P6SM OVC012 PROB30 1716/1720 4SM SHRA SCT012
      BKN024
     FM172000 VRB03KT P6SM VCSH SCT024 BKN040
     FM180300 23003KT P6SM BKN009=



000
FTUS42 KFFC 170620 AAA
TAFFTY
TAF AMD
KFTY 170620Z 1706/1806 09005KT 6SM BR OVC006
      TEMPO 1709/1713 2SM -RA BR OVC004
     FM171600 10004KT P6SM OVC012 PROB30 1716/1720 4SM SHRA SCT012
      BKN024
     FM172000 VRB04KT P6SM VCSH BKN024 BKN040
     FM180300 VRB03KT P6SM BKN009=



000
FTUS42 KFFC 170620 AAA
TAFMCN
TAF AMD
KMCN 170620Z 1706/1806 07005KT 6SM BR OVC005
      TEMPO 1709/1713 3SM -RA BR OVC003
     FM171500 10003KT P6SM BKN012 OVC030 PROB30 1716/1720 4SM SHRA
      SCT012 OVC035
     FM172000 23003KT P6SM VCSH SCT025 BKN040
     FM180500 27003KT P6SM BKN009=



000
FTUS42 KFFC 170620 AAA
TAFPDK
TAF AMD
KPDK 170620Z 1706/1806 09005KT 6SM BR OVC005
      TEMPO 1709/1713 2SM -RA BR OVC003
     FM171600 10004KT P6SM OVC012 PROB30 1716/1720 4SM SHRA SCT012
      BKN024
     FM172000 21004KT P6SM VCSH BKN024 BKN040
     FM180300 VRB03KT P6SM BKN009=



000
FTUS42 KFFC 170620 AAA
TAFAHN
TAF AMD
KAHN 170620Z 1706/1806 08006KT 4SM BR OVC005
      TEMPO 1706/1710 1SM -RA BR OVC003
     FM171600 10004KT P6SM OVC012 PROB30 1716/1720 4SM SHRA SCT012
      BKN024
     FM172000 VRB03KT P6SM VCSH SCT024 BKN040
     FM180300 23003KT P6SM BKN009=



000
FTUS42 KFFC 170620 AAA
TAFFTY
TAF AMD
KFTY 170620Z 1706/1806 09005KT 6SM BR OVC006
      TEMPO 1709/1713 2SM -RA BR OVC004
     FM171600 10004KT P6SM OVC012 PROB30 1716/1720 4SM SHRA SCT012
      BKN024
     FM172000 VRB04KT P6SM VCSH BKN024 BKN040
     FM180300 VRB03KT P6SM BKN009=



000
FTUS42 KFFC 170620 AAA
TAFMCN
TAF AMD
KMCN 170620Z 1706/1806 07005KT 6SM BR OVC005
      TEMPO 1709/1713 3SM -RA BR OVC003
     FM171500 10003KT P6SM BKN012 OVC030 PROB30 1716/1720 4SM SHRA
      SCT012 OVC035
     FM172000 23003KT P6SM VCSH SCT025 BKN040
     FM180500 27003KT P6SM BKN009=



000
FTUS42 KFFC 170542
TAFRYY
TAF
KRYY 170542Z 1706/1806 10005KT 5SM BR OVC007
      TEMPO 1709/1713 2SM -RA BR OVC004
     FM171600 10004KT P6SM OVC012 PROB30 1716/1720 4SM SHRA SCT012
      BKN024
     FM172000 21004KT P6SM VCSH BKN024 BKN040
     FM180300 VRB03KT P6SM BKN009
      AMD NOT SKED TIL 171200=



000
FTUS42 KFFC 170542
TAFAHN
TAF
KAHN 170542Z 1706/1806 08006KT 6SM BR OVC006
      TEMPO 1709/1713 3SM -RA BR OVC004
     FM171600 10004KT P6SM OVC012 PROB30 1716/1720 4SM SHRA SCT012
      BKN024
     FM172000 VRB03KT P6SM VCSH SCT024 BKN040
     FM180300 23003KT P6SM BKN009=



000
FTUS42 KFFC 170542
TAFPDK
TAF
KPDK 170542Z 1706/1806 09005KT 6SM BR OVC007
      TEMPO 1709/1713 2SM -RA BR OVC004
     FM171600 10004KT P6SM OVC012 PROB30 1716/1720 4SM SHRA SCT012
      BKN024
     FM172000 21004KT P6SM VCSH BKN024 BKN040
     FM180300 VRB03KT P6SM BKN009=



000
FTUS42 KFFC 170542
TAFATL
TAF
KATL 170542Z 1706/1812 09007KT 6SM BR OVC004
      TEMPO 1709/1713 2SM -RA BR OVC003
     FM171600 10005KT P6SM OVC012 PROB30 1716/1720 4SM SHRA SCT012
      BKN024
     FM172000 22004KT P6SM VCSH BKN024 BKN040
     FM180300 26003KT P6SM BKN009
     FM180700 29003KT 4SM BR OVC004=



000
FTUS42 KFFC 170542
TAFFTY
TAF
KFTY 170542Z 1706/1806 09005KT 6SM BR OVC007
      TEMPO 1709/1713 2SM -RA BR OVC004
     FM171600 10004KT P6SM OVC012 PROB30 1716/1720 4SM SHRA SCT012
      BKN024
     FM172000 VRB04KT P6SM VCSH BKN024 BKN040
     FM180300 VRB03KT P6SM BKN009=



000
FTUS42 KFFC 170542
TAFMCN
TAF
KMCN 170542Z 1706/1806 07005KT 6SM BR OVC007
      TEMPO 1709/1713 3SM -RA BR OVC005
     FM171500 10003KT P6SM BKN012 OVC030 PROB30 1716/1720 4SM SHRA
      SCT012 OVC035
     FM172000 23003KT P6SM VCSH SCT025 BKN040
     FM180500 27003KT P6SM BKN009=



000
FTUS42 KFFC 170542
TAFCSG
TAF
KCSG 170542Z 1706/1806 11005KT 6SM -RA BR OVC007
      TEMPO 1708/1712 3SM -RA BR OVC005
     FM171500 10003KT P6SM BKN012 OVC030 PROB30 1716/1720 4SM SHRA
      SCT012 OVC035
     FM172000 VRB03KT P6SM VCSH SCT025 BKN040
     FM180500 VRB03KT P6SM BKN009=



000
FTUS42 KFFC 170542
TAFMCN
TAF
KMCN 170542Z 1706/1806 07005KT 6SM BR OVC007
      TEMPO 1709/1713 3SM -RA BR OVC005
     FM171500 10003KT P6SM BKN012 OVC030 PROB30 1716/1720 4SM SHRA
      SCT012 OVC035
     FM172000 23003KT P6SM VCSH SCT025 BKN040
     FM180500 27003KT P6SM BKN009=



000
FTUS42 KFFC 170542
TAFCSG
TAF
KCSG 170542Z 1706/1806 11005KT 6SM -RA BR OVC007
      TEMPO 1708/1712 3SM -RA BR OVC005
     FM171500 10003KT P6SM BKN012 OVC030 PROB30 1716/1720 4SM SHRA
      SCT012 OVC035
     FM172000 VRB03KT P6SM VCSH SCT025 BKN040
     FM180500 VRB03KT P6SM BKN009=



000
FTUS42 KFFC 170335 AAA
TAFMCN
TAF AMD
KMCN 170335Z 1704/1724 07006KT P6SM OVC009
      TEMPO 1704/1707 4SM -RA BR OVC006
     FM170700 06004KT 6SM BR OVC005
     FM171000 05004KT 2SM -RA BR OVC005
     FM171500 07003KT 3SM -RA OVC006
     FM171700 07003KT P6SM OVC012=



000
FTUS42 KFFC 170334 AAA
TAFFTY
TAF AMD
KFTY 170334Z 1704/1724 09005KT P6SM OVC008
      TEMPO 1704/1707 4SM -RA BR OVC005
     FM170700 08004KT 1SM -RA BR OVC003
     FM171400 08003KT 3SM -RA BR OVC006
     FM171700 06003KT P6SM VCSH OVC012
     FM172000 00000KT P6SM OVC012=



000
FTUS42 KFFC 170333 AAA
TAFAHN
TAF AMD
KAHN 170333Z 1704/1724 07007KT P6SM SCT008 BKN015
      TEMPO 1704/1705 4SM -RA BR OVC008
     FM170500 07006KT 5SM -RA BR BKN006
     FM170700 06004KT 2SM -RA BR OVC003
     FM171400 00000KT 4SM BR OVC008
     FM171600 08003KT P6SM VCSH BKN012
     FM172000 08005KT P6SM OVC012=



000
FTUS42 KFFC 170332 AAC
TAFATL
TAF AMD
KATL 170332Z 1704/1806 09008KT P6SM OVC006
      TEMPO 1704/1707 4SM -RA BR OVC004
     FM170700 08006KT 1SM -RA BR OVC003
     FM171400 08003KT 3SM -RA BR OVC006
     FM171600 08003KT P6SM VCSH OVC009
     FM172000 10006KT P6SM OVC012
     FM180300 13003KT P6SM BKN009=



000
FTUS42 KFFC 170255 AAB
TAFPDK
TAF AMD
KPDK 170255Z 1703/1724 09006KT P6SM BKN008
     FM170400 09005KT 3SM -RA BR BKN005
     FM170700 09004KT 1SM -RA BR OVC003
     FM171400 00000KT 3SM BR OVC005
     FM171700 00000KT P6SM VCSH BKN012
     FM172000 00000KT P6SM OVC012=



000
FTUS42 KFFC 170255 AAA
TAFCSG
TAF AMD
KCSG 170255Z 1703/1724 09006KT P6SM SCT005 OVC015
     FM170400 09006KT 5SM -RA BR OVC005
     FM170800 08004KT 3SM -RA BR BKN003
     FM171400 10004KT P6SM OVC006
     FM171800 11004KT P6SM SCT009 BKN012=



000
FTUS42 KFFC 170255 AAB
TAFPDK
TAF AMD
KPDK 170255Z 1703/1724 09006KT P6SM BKN008
     FM170400 09005KT 3SM -RA BR BKN005
     FM170700 09004KT 1SM -RA BR OVC003
     FM171400 00000KT 3SM BR OVC005
     FM171700 00000KT P6SM VCSH BKN012
     FM172000 00000KT P6SM OVC012=



000
FTUS42 KFFC 170253 AAA
TAFPDK
TAF AMD
KPDK 170253Z 1703/1724 09006KT P6SM FEW007 SCT012 BKN040
     FM170400 09005KT 3SM -RA BR BKN005
     FM170700 09004KT 1SM -RA BR OVC003
     FM171400 00000KT 3SM BR OVC005
     FM171700 00000KT P6SM VCSH BKN012
     FM172000 00000KT P6SM OVC012=



000
FTUS42 KFFC 170251 AAB
TAFATL
TAF AMD
KATL 170251Z 1703/1806 11008KT P6SM FEW006 SCT012 BKN040
     FM170400 09008KT 4SM -RA BR FEW004 OVC007
     FM170700 08006KT 1SM -RA BR OVC003
     FM171400 08003KT 3SM -RA BR OVC006
     FM171600 08003KT P6SM VCSH OVC009
     FM172000 10006KT P6SM OVC012
     FM180300 13003KT P6SM BKN009=



000
FTUS42 KFFC 170147 AAA
TAFATL
TAF AMD
KATL 170147Z 1702/1806 10008G13KT 5SM -RA SCT007 BKN012
     FM170300 09007KT 3SM -RA BR OVC007
     FM170700 08006KT 1SM -RA BR OVC003
     FM171400 08003KT 3SM -RA BR OVC006
     FM171600 08003KT P6SM VCSH OVC009
     FM172000 10006KT P6SM OVC012
     FM180300 13003KT P6SM BKN009=



000
FTUS42 KFFC 162342
TAFPDK
TAF
KPDK 162342Z 1700/1724 10006KT 6SM -RA BR SCT007 BKN012
      TEMPO 1700/1701 2SM TSRA BR BKN007CB
     FM170300 09005KT 3SM -RA BR BKN005
     FM170700 09004KT 1SM -RA BR OVC003
     FM171400 00000KT 3SM BR OVC005
     FM171700 00000KT P6SM VCSH BKN012
     FM172000 00000KT P6SM OVC012=



000
FTUS42 KFFC 162342
TAFATL
TAF
KATL 162342Z 1700/1806 10008G13KT 6SM -RA SCT007 BKN012
      TEMPO 1700/1701 2SM TSRA BR BKN007CB
     FM170300 09007KT 3SM -RA BR OVC007
     FM170700 08006KT 1SM -RA BR OVC003
     FM171400 08003KT 3SM -RA BR OVC006
     FM171600 08003KT P6SM VCSH OVC009
     FM172000 10006KT P6SM OVC012
     FM180300 13003KT P6SM BKN009=



000
FTUS42 KFFC 162342
TAFFTY
TAF
KFTY 162342Z 1700/1724 10007KT 6SM -RA BR SCT007 BKN012
      TEMPO 1700/1701 2SM TSRA BR BKN007CB
     FM170300 09005KT 3SM -RA BR OVC005
     FM170700 08004KT 1SM -RA BR OVC003
     FM171400 08003KT 3SM -RA BR OVC006
     FM171700 06003KT P6SM VCSH OVC012
     FM172000 00000KT P6SM OVC012=



000
FTUS42 KFFC 162342
TAFAHN
TAF
KAHN 162342Z 1700/1724 07007KT 6SM -RA BR SCT008 BKN012
     FM170300 07006KT 5SM -RA BR BKN006
     FM170600 06004KT 2SM -RA BR OVC003
     FM171400 00000KT 4SM BR OVC008
     FM171600 08003KT P6SM VCSH BKN012
     FM172000 08005KT P6SM OVC012=



000
FTUS42 KFFC 162342
TAFCSG
TAF
KCSG 162342Z 1700/1724 09006KT 6SM -RA OVC009
     FM170300 09006KT 6SM -RA BR OVC005
     FM170800 08004KT 3SM -RA BR BKN003
     FM171400 10004KT P6SM OVC006
     FM171800 11004KT P6SM SCT009 BKN012=



000
FTUS42 KFFC 162342
TAFRYY
TAF
KRYY 162342Z 1700/1724 11006KT 5SM -RA BR BKN009
      TEMPO 1700/1701 2SM TSRA BR BKN007CB
     FM170300 10006KT 3SM -RA OVC007
     FM170900 09003KT 1SM -RA BR OVC003
     FM171400 09006KT 3SM -RA BR OVC006
     FM171700 00000KT P6SM VCSH OVC009
     FM172000 00000KT P6SM OVC012
      AMD NOT SKED 1704/1712=



000
FTUS42 KFFC 162342
TAFMCN
TAF
KMCN 162342Z 1700/1724 07006KT P6SM SCT008 BKN012
     FM170600 06004KT 6SM BR OVC005
     FM171000 05004KT 2SM -RA BR OVC005
     FM171500 07003KT 3SM -RA OVC006
     FM171700 07003KT P6SM OVC012=



000
FTUS42 KFFC 162247 AAC
TAFATL
TAF AMD
KATL 162247Z 1623/1724 09012G18KT P6SM VCSH OVC012
      TEMPO 1623/1624 2SM TSRA BR BKN007CB
     FM170000 08010KT P6SM -SHRA OVC008
     FM170300 08008KT 5SM -SHRA BR OVC005
     FM170800 09006KT 4SM -SHRA BR OVC004
     FM171600 13007KT P6SM VCSH BKN009
     FM171900 16006KT P6SM BKN015 BKN035=



000
FTUS42 KFFC 162247 AAC
TAFATL
TAF AMD
KATL 162247Z 1623/1724 09012G18KT P6SM VCSH OVC012
      TEMPO 1623/1624 2SM TSRA BR BKN007CB
     FM170000 08010KT P6SM -SHRA OVC008
     FM170300 08008KT 5SM -SHRA BR OVC005
     FM170800 09006KT 4SM -SHRA BR OVC004
     FM171600 13007KT P6SM VCSH BKN009
     FM171900 16006KT P6SM BKN015 BKN035=



000
FTUS42 KFFC 162140 AAB
TAFATL
TAF AMD
KATL 162140Z 1622/1724 09012G18KT P6SM VCSH OVC012
      TEMPO 1622/1624 4SM -SHRA BR BKN007
     FM170000 08010KT P6SM -SHRA OVC008
     FM170300 08008KT 5SM -SHRA BR OVC005
     FM170800 09006KT 4SM -SHRA BR OVC004
     FM171600 13007KT P6SM VCSH BKN009
     FM171900 16006KT P6SM BKN015 BKN035=



000
FTUS42 KFFC 161956 AAA
TAFATL
TAF AMD
KATL 161956Z 1620/1724 09012G18KT P6SM VCSH OVC012
      TEMPO 1620/1624 4SM -SHRA BR BKN007
     FM170000 08010KT P6SM -SHRA OVC008
     FM170300 08008KT 5SM -SHRA BR OVC005
     FM170800 09006KT 4SM -SHRA BR OVC004
     FM171600 13007KT P6SM VCSH BKN009
     FM171900 16006KT P6SM BKN015 BKN035=



000
FTUS42 KFFC 161956 AAA
TAFATL
TAF AMD
KATL 161956Z 1620/1724 09012G18KT P6SM VCSH OVC012
      TEMPO 1620/1624 4SM -SHRA BR BKN007
     FM170000 08010KT P6SM -SHRA OVC008
     FM170300 08008KT 5SM -SHRA BR OVC005
     FM170800 09006KT 4SM -SHRA BR OVC004
     FM171600 13007KT P6SM VCSH BKN009
     FM171900 16006KT P6SM BKN015 BKN035=



000
FTUS42 KFFC 161733
TAFCSG
TAF
KCSG 161733Z 1618/1718 10010KT P6SM VCSH OVC009
      TEMPO 1618/1622 3SM -TSRA BR BKN008CB
     FM170000 06008KT P6SM SHRA OVC009
     FM170500 05007KT 4SM -SHRA BR OVC004
     FM171500 13007KT P6SM VCSH BKN009=



000
FTUS42 KFFC 161733
TAFMCN
TAF
KMCN 161733Z 1618/1718 06010KT P6SM VCSH OVC012
      TEMPO 1618/1622 3SM SHRA BR BKN008
     FM170000 06008KT P6SM SHRA OVC009
     FM170500 05007KT 4SM -SHRA BR OVC004
     FM171500 13007KT P6SM VCSH BKN009=



000
FTUS42 KFFC 161733
TAFFTY
TAF
KFTY 161733Z 1618/1718 09010KT P6SM VCSH OVC012
      TEMPO 1618/1622 3SM SHRA BR BKN009
     FM170000 08008KT P6SM -SHRA OVC008
     FM170300 07006KT 4SM -SHRA BR OVC005
     FM170800 09006KT 4SM -SHRA BR OVC004
     FM171600 13007KT P6SM VCSH BKN009=



000
FTUS42 KFFC 161733
TAFAHN
TAF
KAHN 161733Z 1618/1718 08010G18KT P6SM VCSH OVC011
      TEMPO 1620/1624 3SM SHRA BR BKN008
     FM170000 07009KT P6SM -SHRA OVC006
     FM170500 07006KT 4SM -SHRA BR OVC004
     FM171500 13007KT P6SM VCSH BKN009=



000
FTUS42 KFFC 161733
TAFRYY
TAF
KRYY 161733Z 1618/1718 09010KT P6SM VCSH OVC009
      TEMPO 1618/1622 3SM -TSRA BR BKN007CB
     FM170000 08008KT P6SM -SHRA OVC008
     FM170300 07006KT 4SM -SHRA BR OVC005
     FM170800 09006KT 4SM -SHRA BR OVC004
     FM171600 13007KT P6SM VCSH BKN009=



000
FTUS42 KFFC 161733
TAFATL
TAF
KATL 161733Z 1618/1724 09012G18KT P6SM VCSH OVC009
      TEMPO 1618/1622 4SM -SHRA BR BKN007
     FM170000 08010KT P6SM -SHRA OVC008
     FM170300 08008KT 5SM -SHRA BR OVC005
     FM170800 09006KT 4SM -SHRA BR OVC004
     FM171600 13007KT P6SM VCSH BKN009
     FM171900 16006KT P6SM BKN015 BKN035=



000
FTUS42 KFFC 161733
TAFPDK
TAF
KPDK 161733Z 1618/1718 09010KT P6SM VCSH OVC010
      TEMPO 1618/1622 3SM SHRA BR BKN007
     FM170000 08008KT P6SM -SHRA OVC008
     FM170300 07006KT 4SM -SHRA BR OVC005
     FM170800 09006KT 4SM -SHRA BR OVC004
     FM171600 13007KT P6SM VCSH BKN009=



000
FTUS42 KFFC 161733
TAFCSG
TAF
KCSG 161733Z 1618/1718 10010KT P6SM VCSH OVC009
      TEMPO 1618/1622 3SM -TSRA BR BKN008CB
     FM170000 06008KT P6SM SHRA OVC009
     FM170500 05007KT 4SM -SHRA BR OVC004
     FM171500 13007KT P6SM VCSH BKN009=



000
FTUS42 KFFC 161733
TAFMCN
TAF
KMCN 161733Z 1618/1718 06010KT P6SM VCSH OVC012
      TEMPO 1618/1622 3SM SHRA BR BKN008
     FM170000 06008KT P6SM SHRA OVC009
     FM170500 05007KT 4SM -SHRA BR OVC004
     FM171500 13007KT P6SM VCSH BKN009=



000
FTUS42 KFFC 161733
TAFAHN
TAF
KAHN 161733Z 1618/1718 08010G18KT P6SM VCSH OVC011
      TEMPO 1620/1624 3SM SHRA BR BKN008
     FM170000 07009KT P6SM -SHRA OVC006
     FM170500 07006KT 4SM -SHRA BR OVC004
     FM171500 13007KT P6SM VCSH BKN009=



000
FTUS42 KFFC 161733
TAFRYY
TAF
KRYY 161733Z 1618/1718 09010KT P6SM VCSH OVC009
      TEMPO 1618/1622 3SM -TSRA BR BKN007CB
     FM170000 08008KT P6SM -SHRA OVC008
     FM170300 07006KT 4SM -SHRA BR OVC005
     FM170800 09006KT 4SM -SHRA BR OVC004
     FM171600 13007KT P6SM VCSH BKN009=



000
FTUS42 KFFC 161733
TAFATL
TAF
KATL 161733Z 1618/1724 09012G18KT P6SM VCSH OVC009
      TEMPO 1618/1622 4SM -SHRA BR BKN007
     FM170000 08010KT P6SM -SHRA OVC008
     FM170300 08008KT 5SM -SHRA BR OVC005
     FM170800 09006KT 4SM -SHRA BR OVC004
     FM171600 13007KT P6SM VCSH BKN009
     FM171900 16006KT P6SM BKN015 BKN035=



000
FTUS42 KFFC 161733
TAFPDK
TAF
KPDK 161733Z 1618/1718 09010KT P6SM VCSH OVC010
      TEMPO 1618/1622 3SM SHRA BR BKN007
     FM170000 08008KT P6SM -SHRA OVC008
     FM170300 07006KT 4SM -SHRA BR OVC005
     FM170800 09006KT 4SM -SHRA BR OVC004
     FM171600 13007KT P6SM VCSH BKN009=



000
FTUS42 KFFC 161733
TAFFTY
TAF
KFTY 161733Z 1618/1718 09010KT P6SM VCSH OVC012
      TEMPO 1618/1622 3SM SHRA BR BKN009
     FM170000 08008KT P6SM -SHRA OVC008
     FM170300 07006KT 4SM -SHRA BR OVC005
     FM170800 09006KT 4SM -SHRA BR OVC004
     FM171600 13007KT P6SM VCSH BKN009=



000
FTUS42 KFFC 161557 AAB
TAFATL
TAF AMD
KATL 161557Z 1616/1718 09012G18KT P6SM VCSH OVC007
      TEMPO 1617/1621 4SM -SHRA BR BKN009
     FM170000 08009KT P6SM OVC007
     FM170300 08008KT 4SM -DZ BR OVC004
     FM170800 09006KT 5SM -SHRA BR OVC005
     FM171600 10007KT P6SM VCSH BKN007=



    US Dept of Commerce
    National Oceanic and Atmospheric Administration
    National Weather Service
    1325 East West Highway
    Silver Spring, MD 20910
    Page Author: NWS Internet Services Team
Disclaimer
Information Quality
Credits
Glossary
Privacy Policy
Freedom of Information Act (FOIA)
About Us
Career Opportunities